PWSweather.com
Personal Weather Stations
Station Observations
DL5ARK
SonnebergDE

SonnebergDE

Lat: 50.34904861, Lon: 11.18112087

Elevation: 1214

Station Type: Selfmade

http://www.sumbarg.de

High Low Average
Temperature 60.0°F15.6°C 46.5°F8.1°C 54.1°F12.3°C
Dew Point 61.1°F16.2°C 49.8°F9.9°C 56.2°F13.4°C
Winds 9.5 mph 15.3 kmh Calm Calm 1.0 mph SW1.6 kmh SW
Wind Gusts 9.5 mph15.3 kmh -- 1.0 mph1.6 kmh
Humidity 89% 83% 86%
Pressure 29.84 in1010.5 mb 29.55 in1000.7 mb -
Precipitation 0.34 in8.6 mm - -
Hour Temp Dew Point Humidity Winds Wind Gusts Pressure Precip Precip Rate Daily Precip Total
12:02 AM 46.9°F8.3°C 49.5°F9.7°C 81% Calm Calm -- 29.85 in1010.8 mb 0.00 in0.0 mm 0.00 in0.0 mm 0.00 in0.0 mm
12:05 AM 47.1°F8.4°C 50.1°F10.1°C 83% Calm Calm -- 29.85 in1010.8 mb 0.00 in0.0 mm 0.00 in0.0 mm 0.00 in0.0 mm
12:08 AM 47.0°F8.3°C 49.9°F9.9°C 82% Calm Calm -- 29.85 in1010.8 mb 0.00 in0.0 mm 0.00 in0.0 mm 0.00 in0.0 mm
12:11 AM 47.1°F8.4°C 50.0°F10.0°C 82% Calm Calm -- 29.85 in1010.8 mb 0.00 in0.0 mm 0.00 in0.0 mm 0.00 in0.0 mm
12:14 AM 47.1°F8.4°C 50.1°F10.1°C 82% Calm Calm -- 29.84 in1010.5 mb 0.00 in0.0 mm 0.00 in0.0 mm 0.00 in0.0 mm
12:17 AM 47.2°F8.4°C 50.0°F10.0°C 82% Calm Calm -- 29.85 in1010.8 mb 0.00 in0.0 mm 0.00 in0.0 mm 0.00 in0.0 mm
12:20 AM 47.3°F8.5°C 50.3°F10.2°C 83% 0.4 mph SE0.6 kmh SE 0.4 mph0.6 kmh 29.85 in1010.8 mb 0.00 in0.0 mm 0.00 in0.0 mm 0.00 in0.0 mm
12:23 AM 47.3°F8.5°C 50.4°F10.2°C 83% Calm Calm -- 29.84 in1010.5 mb 0.00 in0.0 mm 0.00 in0.0 mm 0.00 in0.0 mm
12:26 AM 47.8°F8.8°C 50.6°F10.3°C 84% Calm Calm -- 29.85 in1010.8 mb 0.00 in0.0 mm 0.00 in0.0 mm 0.00 in0.0 mm
12:29 AM 47.8°F8.8°C 50.7°F10.4°C 84% Calm Calm -- 29.85 in1010.8 mb 0.00 in0.0 mm 0.00 in0.0 mm 0.00 in0.0 mm
12:32 AM 48.1°F8.9°C 50.6°F10.3°C 84% Calm Calm -- 29.85 in1010.8 mb 0.00 in0.0 mm 0.00 in0.0 mm 0.00 in0.0 mm
12:35 AM 48.3°F9.1°C 50.7°F10.4°C 83% Calm Calm -- 29.85 in1010.8 mb 0.00 in0.0 mm 0.00 in0.0 mm 0.00 in0.0 mm
12:38 AM 48.5°F9.2°C 50.9°F10.5°C 84% Calm Calm -- 29.85 in1010.8 mb 0.00 in0.0 mm 0.00 in0.0 mm 0.00 in0.0 mm
12:41 AM 48.5°F9.2°C 51.1°F10.6°C 84% Calm Calm -- 29.85 in1010.8 mb 0.00 in0.0 mm 0.00 in0.0 mm 0.00 in0.0 mm
12:44 AM 48.5°F9.2°C 51.1°F10.6°C 84% Calm Calm -- 29.85 in1010.8 mb 0.00 in0.0 mm 0.00 in0.0 mm 0.00 in0.0 mm
12:47 AM 48.5°F9.2°C 51.2°F10.7°C 85% Calm Calm -- 29.84 in1010.5 mb 0.00 in0.0 mm 0.00 in0.0 mm 0.00 in0.0 mm
12:50 AM 48.5°F9.2°C 50.9°F10.5°C 84% Calm Calm -- 29.84 in1010.5 mb 0.00 in0.0 mm 0.00 in0.0 mm 0.00 in0.0 mm
12:53 AM 48.4°F9.1°C 51.3°F10.7°C 84% Calm Calm -- 29.84 in1010.5 mb 0.00 in0.0 mm 0.00 in0.0 mm 0.00 in0.0 mm
12:56 AM 48.4°F9.1°C 51.2°F10.7°C 84% Calm Calm -- 29.84 in1010.5 mb 0.00 in0.0 mm 0.00 in0.0 mm 0.00 in0.0 mm
12:59 AM 48.9°F9.4°C 51.3°F10.7°C 84% Calm Calm -- 29.83 in1010.2 mb 0.00 in0.0 mm 0.00 in0.0 mm 0.00 in0.0 mm
01:02 AM 49.1°F9.5°C 51.3°F10.7°C 85% Calm Calm -- 29.84 in1010.5 mb 0.00 in0.0 mm 0.00 in0.0 mm 0.00 in0.0 mm
01:05 AM 49.4°F9.7°C 51.7°F10.9°C 85% Calm Calm -- 29.83 in1010.2 mb 0.00 in0.0 mm 0.00 in0.0 mm 0.00 in0.0 mm
01:08 AM 49.3°F9.6°C 51.8°F11.0°C 86% 1.2 mph SE1.9 kmh SE 1.2 mph1.9 kmh 29.83 in1010.2 mb 0.00 in0.0 mm 0.00 in0.0 mm 0.00 in0.0 mm
01:11 AM 49.3°F9.6°C 51.6°F10.9°C 85% Calm Calm -- 29.83 in1010.2 mb 0.00 in0.0 mm 0.00 in0.0 mm 0.00 in0.0 mm
01:14 AM 49.3°F9.6°C 51.5°F10.8°C 84% Calm Calm -- 29.83 in1010.2 mb 0.00 in0.0 mm 0.00 in0.0 mm 0.00 in0.0 mm
01:17 AM 49.2°F9.6°C 51.6°F10.9°C 85% Calm Calm -- 29.83 in1010.2 mb 0.00 in0.0 mm 0.00 in0.0 mm 0.00 in0.0 mm
01:20 AM 49.0°F9.4°C 51.3°F10.7°C 85% Calm Calm -- 29.83 in1010.2 mb 0.00 in0.0 mm 0.00 in0.0 mm 0.00 in0.0 mm
01:23 AM 48.8°F9.3°C 51.5°F10.8°C 85% Calm Calm -- 29.83 in1010.2 mb 0.00 in0.0 mm 0.00 in0.0 mm 0.00 in0.0 mm
01:26 AM 48.8°F9.3°C 51.4°F10.8°C 84% Calm Calm -- 29.83 in1010.2 mb 0.00 in0.0 mm 0.00 in0.0 mm 0.00 in0.0 mm
01:29 AM 49.0°F9.4°C 51.6°F10.9°C 85% Calm Calm -- 29.83 in1010.2 mb 0.00 in0.0 mm 0.00 in0.0 mm 0.00 in0.0 mm
01:32 AM 49.3°F9.6°C 51.8°F11.0°C 86% Calm Calm -- 29.83 in1010.2 mb 0.00 in0.0 mm 0.00 in0.0 mm 0.00 in0.0 mm
01:35 AM 49.2°F9.6°C 51.8°F11.0°C 85% Calm Calm -- 29.83 in1010.2 mb 0.00 in0.0 mm 0.00 in0.0 mm 0.00 in0.0 mm
01:38 AM 49.2°F9.6°C 51.5°F10.8°C 85% Calm Calm -- 29.83 in1010.2 mb 0.00 in0.0 mm 0.00 in0.0 mm 0.00 in0.0 mm
01:41 AM 49.3°F9.6°C 51.8°F11.0°C 85% Calm Calm -- 29.83 in1010.2 mb 0.00 in0.0 mm 0.00 in0.0 mm 0.00 in0.0 mm
01:44 AM 49.4°F9.7°C 51.7°F10.9°C 85% Calm Calm -- 29.83 in1010.2 mb 0.00 in0.0 mm 0.00 in0.0 mm 0.00 in0.0 mm
01:47 AM 49.2°F9.6°C 51.9°F11.1°C 85% Calm Calm -- 29.82 in1009.8 mb 0.00 in0.0 mm 0.00 in0.0 mm 0.00 in0.0 mm
01:50 AM 49.2°F9.6°C 51.7°F10.9°C 85% Calm Calm -- 29.82 in1009.8 mb 0.00 in0.0 mm 0.00 in0.0 mm 0.00 in0.0 mm
01:53 AM 49.1°F9.5°C 51.8°F11.0°C 85% Calm Calm -- 29.82 in1009.8 mb 0.00 in0.0 mm 0.00 in0.0 mm 0.00 in0.0 mm
01:56 AM 49.2°F9.6°C 51.7°F10.9°C 85% Calm Calm -- 29.82 in1009.8 mb 0.00 in0.0 mm 0.00 in0.0 mm 0.00 in0.0 mm
01:59 AM 49.2°F9.6°C 51.8°F11.0°C 85% Calm Calm -- 29.81 in1009.5 mb 0.00 in0.0 mm 0.00 in0.0 mm 0.00 in0.0 mm
02:02 AM 49.2°F9.6°C 51.6°F10.9°C 85% Calm Calm -- 29.82 in1009.8 mb 0.00 in0.0 mm 0.00 in0.0 mm 0.00 in0.0 mm
02:05 AM 49.1°F9.5°C 51.5°F10.8°C 85% Calm Calm -- 29.81 in1009.5 mb 0.00 in0.0 mm 0.00 in0.0 mm 0.00 in0.0 mm
02:08 AM 49.0°F9.4°C 51.7°F10.9°C 85% Calm Calm -- 29.81 in1009.5 mb 0.00 in0.0 mm 0.00 in0.0 mm 0.00 in0.0 mm
02:11 AM 48.8°F9.3°C 51.8°F11.0°C 85% Calm Calm -- 29.81 in1009.5 mb 0.00 in0.0 mm 0.00 in0.0 mm 0.00 in0.0 mm
02:14 AM 48.8°F9.3°C 51.8°F11.0°C 85% Calm Calm -- 29.81 in1009.5 mb 0.00 in0.0 mm 0.00 in0.0 mm 0.00 in0.0 mm
02:17 AM 48.7°F9.3°C 51.6°F10.9°C 85% Calm Calm -- 29.81 in1009.5 mb 0.00 in0.0 mm 0.00 in0.0 mm 0.00 in0.0 mm
02:20 AM 48.5°F9.2°C 51.5°F10.8°C 85% Calm Calm -- 29.81 in1009.5 mb 0.00 in0.0 mm 0.00 in0.0 mm 0.00 in0.0 mm
02:23 AM 48.3°F9.1°C 51.6°F10.9°C 85% Calm Calm -- 29.81 in1009.5 mb 0.00 in0.0 mm 0.00 in0.0 mm 0.00 in0.0 mm
02:26 AM 48.2°F9.0°C 51.3°F10.7°C 84% Calm Calm -- 29.81 in1009.5 mb 0.00 in0.0 mm 0.00 in0.0 mm 0.00 in0.0 mm
02:29 AM 48.0°F8.9°C 51.3°F10.7°C 85% Calm Calm -- 29.81 in1009.5 mb 0.00 in0.0 mm 0.00 in0.0 mm 0.00 in0.0 mm
02:32 AM 47.6°F8.7°C 51.2°F10.7°C 83% Calm Calm -- 29.81 in1009.5 mb 0.00 in0.0 mm 0.00 in0.0 mm 0.00 in0.0 mm
02:35 AM 47.3°F8.5°C 51.1°F10.6°C 84% Calm Calm -- 29.81 in1009.5 mb 0.00 in0.0 mm 0.00 in0.0 mm 0.00 in0.0 mm
02:38 AM 47.3°F8.5°C 50.8°F10.4°C 83% Calm Calm -- 29.80 in1009.1 mb 0.00 in0.0 mm 0.00 in0.0 mm 0.00 in0.0 mm
02:41 AM 47.1°F8.4°C 50.9°F10.5°C 84% Calm Calm -- 29.80 in1009.1 mb 0.00 in0.0 mm 0.00 in0.0 mm 0.00 in0.0 mm
02:44 AM 46.9°F8.3°C 50.5°F10.3°C 83% Calm Calm -- 29.80 in1009.1 mb 0.00 in0.0 mm 0.00 in0.0 mm 0.00 in0.0 mm
02:47 AM 47.0°F8.3°C 50.8°F10.4°C 84% Calm Calm -- 29.80 in1009.1 mb 0.00 in0.0 mm 0.00 in0.0 mm 0.00 in0.0 mm
02:50 AM 46.9°F8.3°C 50.3°F10.2°C 83% Calm Calm -- 29.80 in1009.1 mb 0.00 in0.0 mm 0.00 in0.0 mm 0.00 in0.0 mm
02:53 AM 46.9°F8.3°C 50.6°F10.3°C 84% Calm Calm -- 29.80 in1009.1 mb 0.00 in0.0 mm 0.00 in0.0 mm 0.00 in0.0 mm
02:56 AM 46.5°F8.1°C 50.5°F10.3°C 84% Calm Calm -- 29.80 in1009.1 mb 0.00 in0.0 mm 0.00 in0.0 mm 0.00 in0.0 mm
02:59 AM 46.7°F8.2°C 50.4°F10.2°C 84% Calm Calm -- 29.80 in1009.1 mb 0.00 in0.0 mm 0.00 in0.0 mm 0.00 in0.0 mm
03:02 AM 46.7°F8.2°C 50.1°F10.1°C 83% Calm Calm -- 29.79 in1008.8 mb 0.00 in0.0 mm 0.00 in0.0 mm 0.00 in0.0 mm
03:05 AM 46.7°F8.2°C 50.3°F10.2°C 84% Calm Calm -- 29.80 in1009.1 mb 0.00 in0.0 mm 0.00 in0.0 mm 0.00 in0.0 mm
03:08 AM 46.9°F8.3°C 50.0°F10.0°C 84% Calm Calm -- 29.79 in1008.8 mb 0.00 in0.0 mm 0.00 in0.0 mm 0.00 in0.0 mm
03:11 AM 46.9°F8.3°C 49.8°F9.9°C 83% Calm Calm -- 29.79 in1008.8 mb 0.00 in0.0 mm 0.00 in0.0 mm 0.00 in0.0 mm
03:14 AM 47.0°F8.3°C 50.1°F10.1°C 84% Calm Calm -- 29.80 in1009.1 mb 0.00 in0.0 mm 0.00 in0.0 mm 0.00 in0.0 mm
03:17 AM 47.0°F8.3°C 50.3°F10.2°C 84% Calm Calm -- 29.79 in1008.8 mb 0.00 in0.0 mm 0.00 in0.0 mm 0.00 in0.0 mm
03:20 AM 46.6°F8.1°C 50.1°F10.1°C 84% Calm Calm -- 29.79 in1008.8 mb 0.00 in0.0 mm 0.00 in0.0 mm 0.00 in0.0 mm
03:23 AM 46.6°F8.1°C 50.2°F10.1°C 84% Calm Calm -- 29.79 in1008.8 mb 0.00 in0.0 mm 0.00 in0.0 mm 0.00 in0.0 mm
03:26 AM 47.1°F8.4°C 50.1°F10.1°C 84% 0.4 mph NNW0.6 kmh NNW 0.4 mph0.6 kmh 29.79 in1008.8 mb 0.00 in0.0 mm 0.00 in0.0 mm 0.00 in0.0 mm
03:29 AM 47.4°F8.6°C 50.4°F10.2°C 85% Calm Calm -- 29.79 in1008.8 mb 0.00 in0.0 mm 0.00 in0.0 mm 0.00 in0.0 mm
03:32 AM 47.4°F8.6°C 50.4°F10.2°C 85% Calm Calm -- 29.79 in1008.8 mb 0.00 in0.0 mm 0.00 in0.0 mm 0.00 in0.0 mm
03:35 AM 47.8°F8.8°C 50.5°F10.3°C 85% Calm Calm -- 29.79 in1008.8 mb 0.00 in0.0 mm 0.00 in0.0 mm 0.00 in0.0 mm
03:38 AM 48.0°F8.9°C 50.7°F10.4°C 85% Calm Calm -- 29.79 in1008.8 mb 0.00 in0.0 mm 0.00 in0.0 mm 0.00 in0.0 mm
03:41 AM 48.4°F9.1°C 50.7°F10.4°C 85% Calm Calm -- 29.79 in1008.8 mb 0.00 in0.0 mm 0.00 in0.0 mm 0.00 in0.0 mm
03:44 AM 48.4°F9.1°C 51.2°F10.7°C 86% 1.1 mph NNE1.8 kmh NNE 1.2 mph1.9 kmh 29.78 in1008.5 mb 0.00 in0.0 mm 0.00 in0.0 mm 0.00 in0.0 mm
03:47 AM 48.7°F9.3°C 50.9°F10.5°C 85% Calm Calm -- 29.78 in1008.5 mb 0.00 in0.0 mm 0.00 in0.0 mm 0.00 in0.0 mm
03:50 AM 48.7°F9.3°C 51.1°F10.6°C 85% Calm Calm -- 29.78 in1008.5 mb 0.00 in0.0 mm 0.00 in0.0 mm 0.00 in0.0 mm
03:53 AM 48.4°F9.1°C 51.2°F10.7°C 86% Calm Calm -- 29.78 in1008.5 mb 0.00 in0.0 mm 0.00 in0.0 mm 0.00 in0.0 mm
03:56 AM 48.4°F9.1°C 50.8°F10.4°C 85% Calm Calm -- 29.78 in1008.5 mb 0.00 in0.0 mm 0.00 in0.0 mm 0.00 in0.0 mm
03:59 AM 48.4°F9.1°C 51.0°F10.6°C 86% Calm Calm -- 29.77 in1008.1 mb 0.00 in0.0 mm 0.00 in0.0 mm 0.00 in0.0 mm
04:02 AM 48.5°F9.2°C 51.1°F10.6°C 86% Calm Calm -- 29.78 in1008.5 mb 0.00 in0.0 mm 0.00 in0.0 mm 0.00 in0.0 mm
04:05 AM 48.5°F9.2°C 51.3°F10.7°C 85% Calm Calm -- 29.77 in1008.1 mb 0.00 in0.0 mm 0.00 in0.0 mm 0.00 in0.0 mm
04:08 AM 48.5°F9.2°C 51.1°F10.6°C 86% Calm Calm -- 29.77 in1008.1 mb 0.00 in0.0 mm 0.00 in0.0 mm 0.00 in0.0 mm
04:11 AM 48.4°F9.1°C 51.3°F10.7°C 85% Calm Calm -- 29.77 in1008.1 mb 0.00 in0.0 mm 0.00 in0.0 mm 0.00 in0.0 mm
04:14 AM 48.4°F9.1°C 51.0°F10.6°C 85% Calm Calm -- 29.77 in1008.1 mb 0.00 in0.0 mm 0.00 in0.0 mm 0.00 in0.0 mm
04:17 AM 48.8°F9.3°C 51.2°F10.7°C 85% 0.8 mph NW1.3 kmh NW 0.8 mph1.3 kmh 29.77 in1008.1 mb 0.00 in0.0 mm 0.00 in0.0 mm 0.00 in0.0 mm
04:20 AM 48.7°F9.3°C 51.4°F10.8°C 86% Calm Calm -- 29.77 in1008.1 mb 0.00 in0.0 mm 0.00 in0.0 mm 0.00 in0.0 mm
04:23 AM 48.8°F9.3°C 51.5°F10.8°C 86% Calm Calm -- 29.77 in1008.1 mb 0.00 in0.0 mm 0.00 in0.0 mm 0.00 in0.0 mm
04:26 AM 48.7°F9.3°C 51.1°F10.6°C 86% Calm Calm -- 29.77 in1008.1 mb 0.00 in0.0 mm 0.00 in0.0 mm 0.00 in0.0 mm
04:29 AM 48.7°F9.3°C 51.5°F10.8°C 86% Calm Calm -- 29.76 in1007.8 mb 0.00 in0.0 mm 0.00 in0.0 mm 0.00 in0.0 mm
04:32 AM 48.7°F9.3°C 51.3°F10.7°C 86% Calm Calm -- 29.76 in1007.8 mb 0.00 in0.0 mm 0.00 in0.0 mm 0.00 in0.0 mm
04:35 AM 48.5°F9.2°C 51.6°F10.9°C 86% Calm Calm -- 29.77 in1008.1 mb 0.00 in0.0 mm 0.00 in0.0 mm 0.00 in0.0 mm
04:38 AM 48.5°F9.2°C 51.5°F10.8°C 86% Calm Calm -- 29.75 in1007.5 mb 0.00 in0.0 mm 0.00 in0.0 mm 0.00 in0.0 mm
04:41 AM 48.5°F9.2°C 51.5°F10.8°C 86% Calm Calm -- 29.76 in1007.8 mb 0.00 in0.0 mm 0.00 in0.0 mm 0.00 in0.0 mm
04:44 AM 48.4°F9.1°C 51.5°F10.8°C 86% Calm Calm -- 29.75 in1007.5 mb 0.00 in0.0 mm 0.00 in0.0 mm 0.00 in0.0 mm
04:47 AM 48.4°F9.1°C 51.6°F10.9°C 86% Calm Calm -- 29.75 in1007.5 mb 0.00 in0.0 mm 0.00 in0.0 mm 0.00 in0.0 mm
04:50 AM 48.4°F9.1°C 51.5°F10.8°C 86% Calm Calm -- 29.75 in1007.5 mb 0.00 in0.0 mm 0.00 in0.0 mm 0.00 in0.0 mm
04:53 AM 48.1°F8.9°C 51.0°F10.6°C 85% Calm Calm -- 29.75 in1007.5 mb 0.00 in0.0 mm 0.00 in0.0 mm 0.00 in0.0 mm
04:56 AM 47.9°F8.8°C 51.6°F10.9°C 86% Calm Calm -- 29.75 in1007.5 mb 0.00 in0.0 mm 0.00 in0.0 mm 0.00 in0.0 mm
04:59 AM 47.8°F8.8°C 51.4°F10.8°C 86% Calm Calm -- 29.75 in1007.5 mb 0.00 in0.0 mm 0.00 in0.0 mm 0.00 in0.0 mm
05:02 AM 47.8°F8.8°C 51.3°F10.7°C 86% Calm Calm -- 29.75 in1007.5 mb 0.00 in0.0 mm 0.00 in0.0 mm 0.00 in0.0 mm
05:05 AM 47.6°F8.7°C 51.3°F10.7°C 86% Calm Calm -- 29.74 in1007.1 mb 0.00 in0.0 mm 0.00 in0.0 mm 0.00 in0.0 mm
05:08 AM 47.4°F8.6°C 51.2°F10.7°C 86% Calm Calm -- 29.74 in1007.1 mb 0.00 in0.0 mm 0.00 in0.0 mm 0.00 in0.0 mm
05:11 AM 47.1°F8.4°C 51.4°F10.8°C 86% Calm Calm -- 29.74 in1007.1 mb 0.00 in0.0 mm 0.00 in0.0 mm 0.00 in0.0 mm
05:14 AM 47.1°F8.4°C 50.7°F10.4°C 85% Calm Calm -- 29.73 in1006.8 mb 0.00 in0.0 mm 0.00 in0.0 mm 0.00 in0.0 mm
05:17 AM 46.6°F8.1°C 51.2°F10.7°C 86% Calm Calm -- 29.73 in1006.8 mb 0.00 in0.0 mm 0.00 in0.0 mm 0.00 in0.0 mm
05:20 AM 46.9°F8.3°C 50.9°F10.5°C 86% Calm Calm -- 29.73 in1006.8 mb 0.00 in0.0 mm 0.00 in0.0 mm 0.00 in0.0 mm
05:23 AM 46.7°F8.2°C 50.7°F10.4°C 85% Calm Calm -- 29.73 in1006.8 mb 0.00 in0.0 mm 0.00 in0.0 mm 0.00 in0.0 mm
05:26 AM 46.5°F8.1°C 50.5°F10.3°C 85% Calm Calm -- 29.73 in1006.8 mb 0.00 in0.0 mm 0.00 in0.0 mm 0.00 in0.0 mm
05:29 AM 46.5°F8.1°C 50.5°F10.3°C 85% Calm Calm -- 29.73 in1006.8 mb 0.00 in0.0 mm 0.00 in0.0 mm 0.00 in0.0 mm
05:32 AM 46.7°F8.2°C 50.4°F10.2°C 85% Calm Calm -- 29.74 in1007.1 mb 0.00 in0.0 mm 0.00 in0.0 mm 0.00 in0.0 mm
05:35 AM 46.5°F8.1°C 50.3°F10.2°C 86% Calm Calm -- 29.73 in1006.8 mb 0.00 in0.0 mm 0.00 in0.0 mm 0.00 in0.0 mm
05:38 AM 46.7°F8.2°C 50.3°F10.2°C 86% Calm Calm -- 29.73 in1006.8 mb 0.00 in0.0 mm 0.00 in0.0 mm 0.00 in0.0 mm
05:41 AM 46.9°F8.3°C 50.5°F10.3°C 86% Calm Calm -- 29.72 in1006.4 mb 0.00 in0.0 mm 0.00 in0.0 mm 0.00 in0.0 mm
05:44 AM 47.2°F8.4°C 50.4°F10.2°C 86% 0.4 mph NE0.6 kmh NE 0.4 mph0.6 kmh 29.73 in1006.8 mb 0.00 in0.0 mm 0.00 in0.0 mm 0.00 in0.0 mm
05:47 AM 47.4°F8.6°C 50.6°F10.3°C 86% 1.2 mph NNE1.9 kmh NNE 1.2 mph1.9 kmh 29.72 in1006.4 mb 0.00 in0.0 mm 0.00 in0.0 mm 0.00 in0.0 mm
05:50 AM 48.0°F8.9°C 50.7°F10.4°C 86% 0.4 mph NNE0.6 kmh NNE 0.4 mph0.6 kmh 29.73 in1006.8 mb 0.00 in0.0 mm 0.00 in0.0 mm 0.00 in0.0 mm
05:53 AM 48.0°F8.9°C 50.6°F10.3°C 85% 0.8 mph NNW1.3 kmh NNW 0.8 mph1.3 kmh 29.73 in1006.8 mb 0.00 in0.0 mm 0.00 in0.0 mm 0.00 in0.0 mm
05:56 AM 48.3°F9.1°C 50.6°F10.3°C 86% Calm Calm -- 29.72 in1006.4 mb 0.00 in0.0 mm 0.00 in0.0 mm 0.00 in0.0 mm
05:59 AM 48.5°F9.2°C 50.8°F10.4°C 86% Calm Calm -- 29.72 in1006.4 mb 0.00 in0.0 mm 0.00 in0.0 mm 0.00 in0.0 mm
06:02 AM 48.7°F9.3°C 50.9°F10.5°C 86% Calm Calm -- 29.72 in1006.4 mb 0.00 in0.0 mm 0.00 in0.0 mm 0.00 in0.0 mm
06:05 AM 48.8°F9.3°C 51.2°F10.7°C 87% Calm Calm -- 29.72 in1006.4 mb 0.00 in0.0 mm 0.00 in0.0 mm 0.00 in0.0 mm
06:08 AM 48.5°F9.2°C 51.2°F10.7°C 87% Calm Calm -- 29.72 in1006.4 mb 0.00 in0.0 mm 0.00 in0.0 mm 0.00 in0.0 mm
06:11 AM 48.7°F9.3°C 51.2°F10.7°C 87% Calm Calm -- 29.72 in1006.4 mb 0.00 in0.0 mm 0.00 in0.0 mm 0.00 in0.0 mm
06:14 AM 48.7°F9.3°C 51.1°F10.6°C 87% Calm Calm -- 29.72 in1006.4 mb 0.00 in0.0 mm 0.00 in0.0 mm 0.00 in0.0 mm
06:17 AM 48.8°F9.3°C 51.1°F10.6°C 87% Calm Calm -- 29.72 in1006.4 mb 0.00 in0.0 mm 0.00 in0.0 mm 0.00 in0.0 mm
06:20 AM 48.8°F9.3°C 51.5°F10.8°C 87% Calm Calm -- 29.72 in1006.4 mb 0.00 in0.0 mm 0.00 in0.0 mm 0.00 in0.0 mm
06:23 AM 49.0°F9.4°C 51.3°F10.7°C 86% Calm Calm -- 29.72 in1006.4 mb 0.00 in0.0 mm 0.00 in0.0 mm 0.00 in0.0 mm
06:26 AM 49.3°F9.6°C 51.4°F10.8°C 87% 0.8 mph W1.3 kmh W 0.8 mph1.3 kmh 29.72 in1006.4 mb 0.00 in0.0 mm 0.00 in0.0 mm 0.00 in0.0 mm
06:29 AM 49.9°F9.9°C 51.3°F10.7°C 86% 3.6 mph NNW5.8 kmh NNW 3.7 mph6.0 kmh 29.72 in1006.4 mb 0.00 in0.0 mm 0.00 in0.0 mm 0.00 in0.0 mm
06:32 AM 49.8°F9.9°C 51.8°F11.0°C 87% 1.2 mph NW1.9 kmh NW 1.2 mph1.9 kmh 29.72 in1006.4 mb 0.00 in0.0 mm 0.00 in0.0 mm 0.00 in0.0 mm
06:35 AM 49.8°F9.9°C 52.0°F11.1°C 87% 0.4 mph WNW0.6 kmh WNW 0.4 mph0.6 kmh 29.72 in1006.4 mb 0.00 in0.0 mm 0.00 in0.0 mm 0.00 in0.0 mm
06:38 AM 49.8°F9.9°C 52.0°F11.1°C 87% Calm Calm -- 29.71 in1006.1 mb 0.00 in0.0 mm 0.00 in0.0 mm 0.00 in0.0 mm
06:41 AM 49.8°F9.9°C 52.0°F11.1°C 87% Calm Calm -- 29.72 in1006.4 mb 0.00 in0.0 mm 0.00 in0.0 mm 0.00 in0.0 mm
06:44 AM 49.8°F9.9°C 52.1°F11.2°C 87% Calm Calm -- 29.71 in1006.1 mb 0.00 in0.0 mm 0.00 in0.0 mm 0.00 in0.0 mm
06:47 AM 49.7°F9.8°C 51.9°F11.1°C 87% Calm Calm -- 29.71 in1006.1 mb 0.00 in0.0 mm 0.00 in0.0 mm 0.02 in0.5 mm
06:50 AM 49.7°F9.8°C 52.0°F11.1°C 87% Calm Calm -- 29.71 in1006.1 mb 0.00 in0.0 mm 0.00 in0.0 mm 0.02 in0.5 mm
06:53 AM 49.7°F9.8°C 52.0°F11.1°C 87% Calm Calm -- 29.70 in1005.8 mb 0.00 in0.0 mm 0.00 in0.0 mm 0.02 in0.5 mm
06:56 AM 49.8°F9.9°C 52.2°F11.2°C 87% Calm Calm -- 29.70 in1005.8 mb 0.00 in0.0 mm 0.00 in0.0 mm 0.02 in0.5 mm
06:59 AM 49.9°F9.9°C 52.3°F11.3°C 87% Calm Calm -- 29.71 in1006.1 mb 0.00 in0.0 mm 0.00 in0.0 mm 0.02 in0.5 mm
07:02 AM 50.0°F10.0°C 52.4°F11.3°C 87% Calm Calm -- 29.71 in1006.1 mb 0.00 in0.0 mm 0.00 in0.0 mm 0.02 in0.5 mm
07:05 AM 50.3°F10.2°C 52.2°F11.2°C 86% Calm Calm -- 29.71 in1006.1 mb 0.00 in0.0 mm 0.00 in0.0 mm 0.02 in0.5 mm
07:08 AM 50.2°F10.1°C 52.6°F11.4°C 87% Calm Calm -- 29.71 in1006.1 mb 0.00 in0.0 mm 0.00 in0.0 mm 0.02 in0.5 mm
07:11 AM 50.1°F10.1°C 52.3°F11.3°C 87% Calm Calm -- 29.71 in1006.1 mb 0.00 in0.0 mm 0.00 in0.0 mm 0.02 in0.5 mm
07:14 AM 50.1°F10.1°C 52.5°F11.4°C 87% Calm Calm -- 29.70 in1005.8 mb 0.00 in0.0 mm 0.00 in0.0 mm 0.02 in0.5 mm
07:17 AM 50.2°F10.1°C 52.7°F11.5°C 88% 2.8 mph ESE4.5 kmh ESE 2.8 mph4.5 kmh 29.70 in1005.8 mb 0.00 in0.0 mm 0.00 in0.0 mm 0.02 in0.5 mm
07:20 AM 50.3°F10.2°C 52.6°F11.4°C 87% 0.8 mph ESE1.3 kmh ESE 0.8 mph1.3 kmh 29.70 in1005.8 mb 0.00 in0.0 mm 0.00 in0.0 mm 0.02 in0.5 mm
07:23 AM 50.3°F10.2°C 52.6°F11.4°C 87% Calm Calm -- 29.71 in1006.1 mb 0.00 in0.0 mm 0.00 in0.0 mm 0.02 in0.5 mm
07:26 AM 50.3°F10.2°C 52.7°F11.5°C 88% Calm Calm -- 29.70 in1005.8 mb 0.00 in0.0 mm 0.00 in0.0 mm 0.02 in0.5 mm
07:29 AM 50.3°F10.2°C 52.6°F11.4°C 87% Calm Calm -- 29.70 in1005.8 mb 0.00 in0.0 mm 0.00 in0.0 mm 0.02 in0.5 mm
07:32 AM 50.3°F10.2°C 52.7°F11.5°C 87% Calm Calm -- 29.70 in1005.8 mb 0.00 in0.0 mm 0.00 in0.0 mm 0.02 in0.5 mm
07:35 AM 50.6°F10.3°C 52.8°F11.6°C 87% Calm Calm -- 29.70 in1005.8 mb 0.00 in0.0 mm 0.00 in0.0 mm 0.02 in0.5 mm
07:38 AM 50.5°F10.3°C 52.7°F11.5°C 88% 0.4 mph ESE0.6 kmh ESE 0.4 mph0.6 kmh 29.70 in1005.8 mb 0.00 in0.0 mm 0.00 in0.0 mm 0.02 in0.5 mm
07:41 AM 50.6°F10.3°C 52.9°F11.6°C 87% Calm Calm -- 29.70 in1005.8 mb 0.00 in0.0 mm 0.00 in0.0 mm 0.02 in0.5 mm
07:44 AM 50.6°F10.3°C 52.8°F11.6°C 87% Calm Calm -- 29.70 in1005.8 mb 0.00 in0.0 mm 0.00 in0.0 mm 0.02 in0.5 mm
07:47 AM 51.0°F10.6°C 52.9°F11.6°C 88% Calm Calm -- 29.70 in1005.8 mb 0.00 in0.0 mm 0.00 in0.0 mm 0.02 in0.5 mm
07:50 AM 51.2°F10.7°C 52.7°F11.5°C 86% Calm Calm -- 29.70 in1005.8 mb 0.00 in0.0 mm 0.00 in0.0 mm 0.02 in0.5 mm
07:53 AM 51.0°F10.6°C 53.4°F11.9°C 88% 1.5 mph SW2.4 kmh SW 1.6 mph2.6 kmh 29.70 in1005.8 mb 0.00 in0.0 mm 0.00 in0.0 mm 0.04 in1.0 mm
07:56 AM 51.0°F10.6°C 53.3°F11.8°C 88% 1.2 mph SW1.9 kmh SW 1.2 mph1.9 kmh 29.70 in1005.8 mb 0.00 in0.0 mm 0.00 in0.0 mm 0.04 in1.0 mm
07:59 AM 50.8°F10.4°C 53.2°F11.8°C 87% 0.8 mph SW1.3 kmh SW 0.8 mph1.3 kmh 29.70 in1005.8 mb 0.00 in0.0 mm 0.00 in0.0 mm 0.06 in1.5 mm
08:02 AM 50.8°F10.4°C 52.7°F11.5°C 86% Calm Calm -- 29.70 in1005.8 mb 0.00 in0.0 mm 0.00 in0.0 mm 0.06 in1.5 mm
08:05 AM 50.7°F10.4°C 53.0°F11.7°C 87% Calm Calm -- 29.70 in1005.8 mb 0.00 in0.0 mm 0.00 in0.0 mm 0.06 in1.5 mm
08:08 AM 50.8°F10.4°C 52.9°F11.6°C 87% Calm Calm -- 29.70 in1005.8 mb 0.00 in0.0 mm 0.00 in0.0 mm 0.06 in1.5 mm
08:11 AM 50.6°F10.3°C 53.2°F11.8°C 88% Calm Calm -- 29.70 in1005.8 mb 0.00 in0.0 mm 0.00 in0.0 mm 0.06 in1.5 mm
08:14 AM 50.6°F10.3°C 53.2°F11.8°C 88% Calm Calm -- 29.70 in1005.8 mb 0.00 in0.0 mm 0.00 in0.0 mm 0.06 in1.5 mm
08:17 AM 50.6°F10.3°C 53.1°F11.7°C 87% Calm Calm -- 29.70 in1005.8 mb 0.00 in0.0 mm 0.00 in0.0 mm 0.06 in1.5 mm
08:20 AM 50.7°F10.4°C 53.0°F11.7°C 87% 0.4 mph ESE0.6 kmh ESE 0.4 mph0.6 kmh 29.70 in1005.8 mb 0.00 in0.0 mm 0.00 in0.0 mm 0.06 in1.5 mm
08:23 AM 51.0°F10.6°C 53.2°F11.8°C 88% Calm Calm -- 29.70 in1005.8 mb 0.00 in0.0 mm 0.00 in0.0 mm 0.06 in1.5 mm
08:26 AM 50.9°F10.5°C 53.4°F11.9°C 88% Calm Calm -- 29.70 in1005.8 mb 0.00 in0.0 mm 0.00 in0.0 mm 0.06 in1.5 mm
08:29 AM 50.9°F10.5°C 53.4°F11.9°C 88% Calm Calm -- 29.70 in1005.8 mb 0.00 in0.0 mm 0.00 in0.0 mm 0.06 in1.5 mm
08:32 AM 51.0°F10.6°C 53.4°F11.9°C 88% Calm Calm -- 29.69 in1005.4 mb 0.00 in0.0 mm 0.00 in0.0 mm 0.08 in2.0 mm
08:35 AM 51.2°F10.7°C 53.4°F11.9°C 88% Calm Calm -- 29.70 in1005.8 mb 0.00 in0.0 mm 0.00 in0.0 mm 0.08 in2.0 mm
08:38 AM 51.2°F10.7°C 53.7°F12.1°C 88% Calm Calm -- 29.69 in1005.4 mb 0.00 in0.0 mm 0.00 in0.0 mm 0.08 in2.0 mm
08:41 AM 51.4°F10.8°C 53.4°F11.9°C 87% Calm Calm -- 29.70 in1005.8 mb 0.00 in0.0 mm 0.00 in0.0 mm 0.08 in2.0 mm
08:44 AM 51.2°F10.7°C 53.5°F11.9°C 88% Calm Calm -- 29.69 in1005.4 mb 0.00 in0.0 mm 0.00 in0.0 mm 0.08 in2.0 mm
08:47 AM 51.2°F10.7°C 53.6°F12.0°C 88% Calm Calm -- 29.69 in1005.4 mb 0.00 in0.0 mm 0.00 in0.0 mm 0.08 in2.0 mm
08:50 AM 51.4°F10.8°C 53.4°F11.9°C 88% Calm Calm -- 29.69 in1005.4 mb 0.00 in0.0 mm 0.00 in0.0 mm 0.08 in2.0 mm
08:53 AM 51.4°F10.8°C 53.6°F12.0°C 88% Calm Calm -- 29.68 in1005.1 mb 0.00 in0.0 mm 0.00 in0.0 mm 0.08 in2.0 mm
08:56 AM 51.7°F10.9°C 53.3°F11.8°C 87% Calm Calm -- 29.68 in1005.1 mb 0.00 in0.0 mm 0.00 in0.0 mm 0.08 in2.0 mm
08:59 AM 51.8°F11.0°C 53.8°F12.1°C 88% Calm Calm -- 29.69 in1005.4 mb 0.00 in0.0 mm 0.00 in0.0 mm 0.08 in2.0 mm
09:02 AM 51.6°F10.9°C 53.8°F12.1°C 88% Calm Calm -- 29.68 in1005.1 mb 0.00 in0.0 mm 0.00 in0.0 mm 0.08 in2.0 mm
09:05 AM 51.7°F10.9°C 53.6°F12.0°C 87% Calm Calm -- 29.68 in1005.1 mb 0.00 in0.0 mm 0.00 in0.0 mm 0.08 in2.0 mm
09:08 AM 51.8°F11.0°C 53.5°F11.9°C 86% Calm Calm -- 29.68 in1005.1 mb 0.00 in0.0 mm 0.00 in0.0 mm 0.08 in2.0 mm
09:11 AM 51.8°F11.0°C 54.0°F12.2°C 88% Calm Calm -- 29.69 in1005.4 mb 0.00 in0.0 mm 0.00 in0.0 mm 0.08 in2.0 mm
09:14 AM 51.7°F10.9°C 53.8°F12.1°C 87% Calm Calm -- 29.69 in1005.4 mb 0.00 in0.0 mm 0.00 in0.0 mm 0.08 in2.0 mm
09:17 AM 52.1°F11.2°C 54.0°F12.2°C 88% Calm Calm -- 29.68 in1005.1 mb 0.00 in0.0 mm 0.00 in0.0 mm 0.08 in2.0 mm
09:20 AM 52.1°F11.2°C 53.9°F12.2°C 88% Calm Calm -- 29.68 in1005.1 mb 0.00 in0.0 mm 0.00 in0.0 mm 0.08 in2.0 mm
09:23 AM 52.3°F11.3°C 53.8°F12.1°C 87% Calm Calm -- 29.68 in1005.1 mb 0.00 in0.0 mm 0.00 in0.0 mm 0.08 in2.0 mm
09:26 AM 52.3°F11.3°C 54.1°F12.3°C 87% Calm Calm -- 29.68 in1005.1 mb 0.00 in0.0 mm 0.00 in0.0 mm 0.08 in2.0 mm
09:29 AM 52.6°F11.4°C 54.1°F12.3°C 88% 0.4 mph ESE0.6 kmh ESE 0.4 mph0.6 kmh 29.68 in1005.1 mb 0.00 in0.0 mm 0.00 in0.0 mm 0.08 in2.0 mm
09:32 AM 52.9°F11.6°C 54.3°F12.4°C 87% 0.8 mph NNW1.3 kmh NNW 0.8 mph1.3 kmh 29.68 in1005.1 mb 0.00 in0.0 mm 0.00 in0.0 mm 0.08 in2.0 mm
09:35 AM 52.7°F11.5°C 54.2°F12.3°C 88% Calm Calm -- 29.68 in1005.1 mb 0.00 in0.0 mm 0.00 in0.0 mm 0.08 in2.0 mm
09:38 AM 52.7°F11.5°C 54.6°F12.6°C 88% 1.2 mph SE1.9 kmh SE 1.2 mph1.9 kmh 29.68 in1005.1 mb 0.00 in0.0 mm 0.00 in0.0 mm 0.08 in2.0 mm
09:41 AM 52.9°F11.6°C 54.4°F12.4°C 88% 0.8 mph SE1.3 kmh SE 0.8 mph1.3 kmh 29.68 in1005.1 mb 0.00 in0.0 mm 0.00 in0.0 mm 0.08 in2.0 mm
09:44 AM 52.6°F11.4°C 54.5°F12.5°C 88% Calm Calm -- 29.68 in1005.1 mb 0.00 in0.0 mm 0.00 in0.0 mm 0.08 in2.0 mm
09:47 AM 53.0°F11.7°C 54.5°F12.5°C 88% Calm Calm -- 29.68 in1005.1 mb 0.00 in0.0 mm 0.00 in0.0 mm 0.08 in2.0 mm
09:50 AM 53.3°F11.8°C 54.9°F12.7°C 88% Calm Calm -- 29.68 in1005.1 mb 0.00 in0.0 mm 0.00 in0.0 mm 0.08 in2.0 mm
09:53 AM 53.0°F11.7°C 54.8°F12.7°C 88% 1.1 mph SE1.8 kmh SE 1.2 mph1.9 kmh 29.67 in1004.7 mb 0.00 in0.0 mm 0.00 in0.0 mm 0.08 in2.0 mm
09:56 AM 53.4°F11.9°C 54.9°F12.7°C 88% 3.2 mph ESE5.1 kmh ESE 3.3 mph5.3 kmh 29.67 in1004.7 mb 0.00 in0.0 mm 0.00 in0.0 mm 0.08 in2.0 mm
09:59 AM 53.6°F12.0°C 55.0°F12.8°C 88% 2.0 mph NNW3.2 kmh NNW 2.0 mph3.2 kmh 29.68 in1005.1 mb 0.00 in0.0 mm 0.00 in0.0 mm 0.08 in2.0 mm
10:02 AM 53.9°F12.2°C 55.3°F12.9°C 88% 0.4 mph SE0.6 kmh SE 0.4 mph0.6 kmh 29.67 in1004.7 mb 0.00 in0.0 mm 0.00 in0.0 mm 0.08 in2.0 mm
10:05 AM 54.1°F12.3°C 55.4°F13.0°C 89% 0.4 mph SE0.6 kmh SE 0.4 mph0.6 kmh 29.68 in1005.1 mb 0.00 in0.0 mm 0.00 in0.0 mm 0.08 in2.0 mm
10:08 AM 54.1°F12.3°C 55.4°F13.0°C 88% Calm Calm -- 29.68 in1005.1 mb 0.00 in0.0 mm 0.00 in0.0 mm 0.08 in2.0 mm
10:11 AM 54.2°F12.3°C 55.6°F13.1°C 88% Calm Calm -- 29.68 in1005.1 mb 0.00 in0.0 mm 0.00 in0.0 mm 0.08 in2.0 mm
10:14 AM 54.3°F12.4°C 55.1°F12.8°C 87% 0.8 mph SE1.3 kmh SE 0.8 mph1.3 kmh 29.68 in1005.1 mb 0.00 in0.0 mm 0.00 in0.0 mm 0.08 in2.0 mm
10:17 AM 54.2°F12.3°C 55.5°F13.1°C 88% 1.5 mph ESE2.4 kmh ESE 1.5 mph2.4 kmh 29.68 in1005.1 mb 0.00 in0.0 mm 0.00 in0.0 mm 0.08 in2.0 mm
10:20 AM 54.2°F12.3°C 55.4°F13.0°C 88% 1.6 mph SE2.6 kmh SE 1.6 mph2.6 kmh 29.68 in1005.1 mb 0.00 in0.0 mm 0.00 in0.0 mm 0.08 in2.0 mm
10:23 AM 54.2°F12.3°C 55.8°F13.2°C 88% 0.4 mph NNW0.6 kmh NNW 0.4 mph0.6 kmh 29.67 in1004.7 mb 0.00 in0.0 mm 0.00 in0.0 mm 0.08 in2.0 mm
10:26 AM 54.5°F12.5°C 55.6°F13.1°C 88% 0.8 mph SE1.3 kmh SE 0.8 mph1.3 kmh 29.67 in1004.7 mb 0.00 in0.0 mm 0.00 in0.0 mm 0.08 in2.0 mm
10:29 AM 54.4°F12.4°C 55.6°F13.1°C 88% Calm Calm -- 29.68 in1005.1 mb 0.00 in0.0 mm 0.00 in0.0 mm 0.08 in2.0 mm
10:32 AM 54.2°F12.3°C 55.8°F13.2°C 88% 0.4 mph NNW0.6 kmh NNW 0.4 mph0.6 kmh 29.67 in1004.7 mb 0.00 in0.0 mm 0.00 in0.0 mm 0.08 in2.0 mm
10:35 AM 54.4°F12.4°C 55.7°F13.2°C 88% 1.6 mph ESE2.6 kmh ESE 1.6 mph2.6 kmh 29.68 in1005.1 mb 0.00 in0.0 mm 0.00 in0.0 mm 0.08 in2.0 mm
10:38 AM 54.6°F12.6°C 55.9°F13.3°C 88% Calm Calm -- 29.67 in1004.7 mb 0.00 in0.0 mm 0.00 in0.0 mm 0.08 in2.0 mm
10:41 AM 54.7°F12.6°C 56.0°F13.3°C 88% Calm Calm -- 29.67 in1004.7 mb 0.00 in0.0 mm 0.00 in0.0 mm 0.08 in2.0 mm
10:44 AM 54.7°F12.6°C 55.8°F13.2°C 87% 1.6 mph SE2.6 kmh SE 1.6 mph2.6 kmh 29.67 in1004.7 mb 0.00 in0.0 mm 0.00 in0.0 mm 0.08 in2.0 mm
10:47 AM 54.6°F12.6°C 56.1°F13.4°C 88% Calm Calm -- 29.67 in1004.7 mb 0.00 in0.0 mm 0.00 in0.0 mm 0.08 in2.0 mm
10:50 AM 54.1°F12.3°C 56.1°F13.4°C 88% Calm Calm -- 29.67 in1004.7 mb 0.00 in0.0 mm 0.00 in0.0 mm 0.08 in2.0 mm
10:53 AM 54.7°F12.6°C 55.9°F13.3°C 88% 0.4 mph SE0.6 kmh SE 0.4 mph0.6 kmh 29.67 in1004.7 mb 0.00 in0.0 mm 0.00 in0.0 mm 0.08 in2.0 mm
10:56 AM 54.6°F12.6°C 56.2°F13.4°C 88% Calm Calm -- 29.67 in1004.7 mb 0.00 in0.0 mm 0.00 in0.0 mm 0.08 in2.0 mm
10:59 AM 54.6°F12.6°C 56.3°F13.5°C 88% 0.4 mph SSE0.6 kmh SSE 0.4 mph0.6 kmh 29.67 in1004.7 mb 0.00 in0.0 mm 0.00 in0.0 mm 0.08 in2.0 mm
11:02 AM 54.7°F12.6°C 56.3°F13.5°C 88% Calm Calm -- 29.67 in1004.7 mb 0.00 in0.0 mm 0.00 in0.0 mm 0.08 in2.0 mm
11:05 AM 54.3°F12.4°C 56.1°F13.4°C 87% Calm Calm -- 29.67 in1004.7 mb 0.00 in0.0 mm 0.00 in0.0 mm 0.08 in2.0 mm
11:08 AM 54.8°F12.7°C 56.0°F13.3°C 87% Calm Calm -- 29.67 in1004.7 mb 0.00 in0.0 mm 0.00 in0.0 mm 0.08 in2.0 mm
11:11 AM 55.0°F12.8°C 56.4°F13.6°C 87% Calm Calm -- 29.67 in1004.7 mb 0.00 in0.0 mm 0.00 in0.0 mm 0.08 in2.0 mm
11:14 AM 54.8°F12.7°C 56.4°F13.6°C 88% 0.4 mph ESE0.6 kmh ESE 0.4 mph0.6 kmh 29.67 in1004.7 mb 0.00 in0.0 mm 0.00 in0.0 mm 0.08 in2.0 mm
11:17 AM 55.1°F12.8°C 56.2°F13.4°C 87% Calm Calm -- 29.67 in1004.7 mb 0.00 in0.0 mm 0.00 in0.0 mm 0.08 in2.0 mm
11:20 AM 54.8°F12.7°C 56.4°F13.6°C 87% 0.8 mph SE1.3 kmh SE 0.8 mph1.3 kmh 29.67 in1004.7 mb 0.00 in0.0 mm 0.00 in0.0 mm 0.08 in2.0 mm
11:23 AM 55.0°F12.8°C 56.2°F13.4°C 87% 2.0 mph SE3.2 kmh SE 2.0 mph3.2 kmh 29.67 in1004.7 mb 0.00 in0.0 mm 0.00 in0.0 mm 0.08 in2.0 mm
11:26 AM 55.1°F12.8°C 56.3°F13.5°C 88% 2.8 mph ESE4.5 kmh ESE 2.9 mph4.7 kmh 29.67 in1004.7 mb 0.00 in0.0 mm 0.00 in0.0 mm 0.08 in2.0 mm
11:29 AM 55.0°F12.8°C 56.7°F13.7°C 88% Calm Calm -- 29.66 in1004.4 mb 0.00 in0.0 mm 0.00 in0.0 mm 0.08 in2.0 mm
11:32 AM 55.3°F12.9°C 56.8°F13.8°C 88% 3.0 mph SE4.8 kmh SE 3.0 mph4.8 kmh 29.66 in1004.4 mb 0.00 in0.0 mm 0.00 in0.0 mm 0.08 in2.0 mm
11:35 AM 55.3°F12.9°C 56.5°F13.6°C 88% 0.8 mph E1.3 kmh E 0.8 mph1.3 kmh 29.66 in1004.4 mb 0.00 in0.0 mm 0.00 in0.0 mm 0.08 in2.0 mm
11:38 AM 55.6°F13.1°C 56.7°F13.7°C 88% Calm Calm -- 29.66 in1004.4 mb 0.00 in0.0 mm 0.00 in0.0 mm 0.08 in2.0 mm
11:41 AM 55.5°F13.1°C 56.7°F13.7°C 88% 3.2 mph ESE5.1 kmh ESE 3.2 mph5.1 kmh 29.66 in1004.4 mb 0.00 in0.0 mm 0.00 in0.0 mm 0.08 in2.0 mm
11:44 AM 55.4°F13.0°C 56.9°F13.8°C 87% Calm Calm -- 29.66 in1004.4 mb 0.00 in0.0 mm 0.00 in0.0 mm 0.08 in2.0 mm
11:47 AM 55.5°F13.1°C 57.0°F13.9°C 88% 2.7 mph ESE4.3 kmh ESE 2.9 mph4.7 kmh 29.66 in1004.4 mb 0.00 in0.0 mm 0.00 in0.0 mm 0.08 in2.0 mm
11:50 AM 55.7°F13.2°C 57.1°F13.9°C 88% 3.2 mph NNW5.1 kmh NNW 3.3 mph5.3 kmh 29.66 in1004.4 mb 0.00 in0.0 mm 0.00 in0.0 mm 0.08 in2.0 mm
11:53 AM 55.5°F13.1°C 57.2°F14.0°C 88% 3.6 mph ESE5.8 kmh ESE 3.7 mph6.0 kmh 29.66 in1004.4 mb 0.00 in0.0 mm 0.00 in0.0 mm 0.08 in2.0 mm
11:56 AM 55.9°F13.3°C 56.9°F13.8°C 88% 2.8 mph SE4.5 kmh SE 2.9 mph4.7 kmh 29.65 in1004.1 mb 0.00 in0.0 mm 0.00 in0.0 mm 0.08 in2.0 mm
11:59 AM 56.0°F13.3°C 57.1°F13.9°C 88% 1.2 mph SE1.9 kmh SE 1.2 mph1.9 kmh 29.66 in1004.4 mb 0.00 in0.0 mm 0.00 in0.0 mm 0.08 in2.0 mm
12:02 PM 56.4°F13.6°C 57.3°F14.1°C 88% 2.0 mph NNW3.2 kmh NNW 2.0 mph3.2 kmh 29.66 in1004.4 mb 0.00 in0.0 mm 0.00 in0.0 mm 0.10 in2.5 mm
12:05 PM 56.5°F13.6°C 57.2°F14.0°C 88% Calm Calm -- 29.66 in1004.4 mb 0.00 in0.0 mm 0.00 in0.0 mm 0.10 in2.5 mm
12:08 PM 56.8°F13.8°C 57.6°F14.2°C 88% 1.2 mph NNW1.9 kmh NNW 1.2 mph1.9 kmh 29.66 in1004.4 mb 0.00 in0.0 mm 0.00 in0.0 mm 0.10 in2.5 mm
12:11 PM 56.5°F13.6°C 57.5°F14.2°C 88% 2.0 mph SE3.2 kmh SE 2.0 mph3.2 kmh 29.65 in1004.1 mb 0.00 in0.0 mm 0.00 in0.0 mm 0.10 in2.5 mm
12:14 PM 56.4°F13.6°C 57.4°F14.1°C 88% Calm Calm -- 29.65 in1004.1 mb 0.00 in0.0 mm 0.00 in0.0 mm 0.10 in2.5 mm
12:17 PM 56.9°F13.8°C 57.6°F14.2°C 88% Calm Calm -- 29.65 in1004.1 mb 0.00 in0.0 mm 0.00 in0.0 mm 0.10 in2.5 mm
12:20 PM 57.1°F13.9°C 57.9°F14.4°C 88% Calm Calm -- 29.65 in1004.1 mb 0.00 in0.0 mm 0.00 in0.0 mm 0.10 in2.5 mm
12:23 PM 56.6°F13.7°C 57.7°F14.3°C 88% 1.2 mph SE1.9 kmh SE 1.2 mph1.9 kmh 29.65 in1004.1 mb 0.00 in0.0 mm 0.00 in0.0 mm 0.10 in2.5 mm
12:26 PM 56.4°F13.6°C 57.6°F14.2°C 87% 1.2 mph SE1.9 kmh SE 1.2 mph1.9 kmh 29.65 in1004.1 mb 0.00 in0.0 mm 0.00 in0.0 mm 0.10 in2.5 mm
12:29 PM 56.4°F13.6°C 57.7°F14.3°C 87% 1.2 mph SE1.9 kmh SE 1.2 mph1.9 kmh 29.65 in1004.1 mb 0.00 in0.0 mm 0.00 in0.0 mm 0.10 in2.5 mm
12:32 PM 56.5°F13.6°C 57.4°F14.1°C 87% Calm Calm -- 29.65 in1004.1 mb 0.00 in0.0 mm 0.00 in0.0 mm 0.10 in2.5 mm
12:35 PM 57.0°F13.9°C 57.8°F14.3°C 87% 1.2 mph NNW1.9 kmh NNW 1.2 mph1.9 kmh 29.64 in1003.7 mb 0.00 in0.0 mm 0.00 in0.0 mm 0.10 in2.5 mm
12:38 PM 56.9°F13.8°C 57.6°F14.2°C 87% Calm Calm -- 29.64 in1003.7 mb 0.00 in0.0 mm 0.00 in0.0 mm 0.10 in2.5 mm
12:41 PM 56.9°F13.8°C 57.8°F14.3°C 87% Calm Calm -- 29.64 in1003.7 mb 0.00 in0.0 mm 0.00 in0.0 mm 0.10 in2.5 mm
12:44 PM 56.9°F13.8°C 57.8°F14.3°C 87% Calm Calm -- 29.64 in1003.7 mb 0.00 in0.0 mm 0.00 in0.0 mm 0.10 in2.5 mm
12:47 PM 57.0°F13.9°C 57.7°F14.3°C 87% 0.4 mph ESE0.6 kmh ESE 0.4 mph0.6 kmh 29.64 in1003.7 mb 0.00 in0.0 mm 0.00 in0.0 mm 0.10 in2.5 mm
12:50 PM 56.9°F13.8°C 57.7°F14.3°C 87% Calm Calm -- 29.64 in1003.7 mb 0.00 in0.0 mm 0.00 in0.0 mm 0.10 in2.5 mm
12:53 PM 56.8°F13.8°C 57.8°F14.3°C 87% 0.8 mph SE1.3 kmh SE 0.8 mph1.3 kmh 29.64 in1003.7 mb 0.00 in0.0 mm 0.00 in0.0 mm 0.10 in2.5 mm
12:56 PM 56.9°F13.8°C 57.8°F14.3°C 87% 0.4 mph SE0.6 kmh SE 0.4 mph0.6 kmh 29.64 in1003.7 mb 0.00 in0.0 mm 0.00 in0.0 mm 0.10 in2.5 mm
12:59 PM 57.1°F13.9°C 58.1°F14.5°C 87% Calm Calm -- 29.64 in1003.7 mb 0.00 in0.0 mm 0.00 in0.0 mm 0.10 in2.5 mm
01:02 PM 57.7°F14.3°C 58.1°F14.5°C 87% 0.8 mph SE1.3 kmh SE 0.8 mph1.3 kmh 29.64 in1003.7 mb 0.00 in0.0 mm 0.00 in0.0 mm 0.10 in2.5 mm
01:05 PM 57.4°F14.1°C 58.1°F14.5°C 87% Calm Calm -- 29.64 in1003.7 mb 0.00 in0.0 mm 0.00 in0.0 mm 0.10 in2.5 mm
01:08 PM 57.5°F14.2°C 58.2°F14.6°C 87% Calm Calm -- 29.64 in1003.7 mb 0.00 in0.0 mm 0.00 in0.0 mm 0.10 in2.5 mm
01:11 PM 57.5°F14.2°C 58.6°F14.8°C 88% Calm Calm -- 29.64 in1003.7 mb 0.00 in0.0 mm 0.00 in0.0 mm 0.10 in2.5 mm
01:14 PM 57.3°F14.1°C 58.2°F14.6°C 87% Calm Calm -- 29.63 in1003.4 mb 0.00 in0.0 mm 0.00 in0.0 mm 0.10 in2.5 mm
01:17 PM 57.4°F14.1°C 58.4°F14.7°C 87% Calm Calm -- 29.63 in1003.4 mb 0.00 in0.0 mm 0.00 in0.0 mm 0.10 in2.5 mm
01:20 PM 57.2°F14.0°C 58.5°F14.7°C 87% Calm Calm -- 29.63 in1003.4 mb 0.00 in0.0 mm 0.00 in0.0 mm 0.10 in2.5 mm
01:23 PM 57.5°F14.2°C 58.4°F14.7°C 87% 1.2 mph ESE1.9 kmh ESE 1.2 mph1.9 kmh 29.63 in1003.4 mb 0.00 in0.0 mm 0.00 in0.0 mm 0.10 in2.5 mm
01:26 PM 57.7°F14.3°C 58.6°F14.8°C 87% Calm Calm -- 29.63 in1003.4 mb 0.00 in0.0 mm 0.00 in0.0 mm 0.10 in2.5 mm
01:29 PM 57.4°F14.1°C 58.6°F14.8°C 87% Calm Calm -- 29.63 in1003.4 mb 0.00 in0.0 mm 0.00 in0.0 mm 0.10 in2.5 mm
01:32 PM 57.7°F14.3°C 58.8°F14.9°C 87% Calm Calm -- 29.63 in1003.4 mb 0.00 in0.0 mm 0.00 in0.0 mm 0.10 in2.5 mm
01:35 PM 57.8°F14.3°C 58.6°F14.8°C 87% Calm Calm -- 29.63 in1003.4 mb 0.00 in0.0 mm 0.00 in0.0 mm 0.10 in2.5 mm
01:38 PM 59.0°F15.0°C 59.0°F15.0°C 87% Calm Calm -- 29.62 in1003.0 mb 0.00 in0.0 mm 0.00 in0.0 mm 0.10 in2.5 mm
01:41 PM 59.2°F15.1°C 59.1°F15.1°C 88% 2.4 mph WNW3.9 kmh WNW 2.4 mph3.9 kmh 29.62 in1003.0 mb 0.00 in0.0 mm 0.00 in0.0 mm 0.10 in2.5 mm
01:44 PM 59.6°F15.3°C 59.5°F15.3°C 88% 2.3 mph W3.7 kmh W 2.3 mph3.7 kmh 29.63 in1003.4 mb 0.00 in0.0 mm 0.00 in0.0 mm 0.10 in2.5 mm
01:47 PM 59.9°F15.5°C 59.6°F15.3°C 87% 1.2 mph WNW1.9 kmh WNW 1.2 mph1.9 kmh 29.62 in1003.0 mb 0.00 in0.0 mm 0.00 in0.0 mm 0.10 in2.5 mm
01:50 PM 59.6°F15.3°C 59.7°F15.4°C 87% 1.6 mph NW2.6 kmh NW 1.6 mph2.6 kmh 29.62 in1003.0 mb 0.00 in0.0 mm 0.00 in0.0 mm 0.10 in2.5 mm
01:53 PM 59.2°F15.1°C 59.6°F15.3°C 87% 1.2 mph NW1.9 kmh NW 1.2 mph1.9 kmh 29.61 in1002.7 mb 0.00 in0.0 mm 0.00 in0.0 mm 0.10 in2.5 mm
01:56 PM 58.7°F14.8°C 59.6°F15.3°C 87% Calm Calm -- 29.61 in1002.7 mb 0.00 in0.0 mm 0.00 in0.0 mm 0.10 in2.5 mm
01:59 PM 58.6°F14.8°C 59.3°F15.2°C 86% 2.0 mph NNW3.2 kmh NNW 2.0 mph3.2 kmh 29.62 in1003.0 mb 0.00 in0.0 mm 0.00 in0.0 mm 0.10 in2.5 mm
02:02 PM 58.2°F14.6°C 59.3°F15.2°C 86% Calm Calm -- 29.61 in1002.7 mb 0.00 in0.0 mm 0.00 in0.0 mm 0.10 in2.5 mm
02:05 PM 58.6°F14.8°C 59.5°F15.3°C 86% Calm Calm -- 29.61 in1002.7 mb 0.00 in0.0 mm 0.00 in0.0 mm 0.10 in2.5 mm
02:08 PM 58.3°F14.6°C 59.4°F15.2°C 86% 0.4 mph NE0.6 kmh NE 0.4 mph0.6 kmh 29.61 in1002.7 mb 0.00 in0.0 mm 0.00 in0.0 mm 0.10 in2.5 mm
02:11 PM 58.3°F14.6°C 59.2°F15.1°C 86% 3.2 mph NNW5.1 kmh NNW 3.3 mph5.3 kmh 29.61 in1002.7 mb 0.00 in0.0 mm 0.00 in0.0 mm 0.10 in2.5 mm
02:14 PM 58.0°F14.4°C 59.3°F15.2°C 86% 1.9 mph NNW3.1 kmh NNW 1.9 mph3.1 kmh 29.61 in1002.7 mb 0.00 in0.0 mm 0.00 in0.0 mm 0.10 in2.5 mm
02:17 PM 57.8°F14.3°C 59.3°F15.2°C 86% 1.6 mph NE2.6 kmh NE 1.6 mph2.6 kmh 29.61 in1002.7 mb 0.00 in0.0 mm 0.00 in0.0 mm 0.10 in2.5 mm
02:20 PM 57.8°F14.3°C 59.3°F15.2°C 86% 1.6 mph 2.6 kmh 1.6 mph2.6 kmh 29.61 in1002.7 mb 0.00 in0.0 mm 0.00 in0.0 mm 0.10 in2.5 mm
02:23 PM 57.7°F14.3°C 59.1°F15.1°C 86% 1.6 mph NE2.6 kmh NE 1.6 mph2.6 kmh 29.61 in1002.7 mb 0.00 in0.0 mm 0.00 in0.0 mm 0.10 in2.5 mm
02:26 PM 57.4°F14.1°C 59.2°F15.1°C 86% 1.6 mph NNW2.6 kmh NNW 1.6 mph2.6 kmh 29.61 in1002.7 mb 0.00 in0.0 mm 0.00 in0.0 mm 0.10 in2.5 mm
02:29 PM 57.8°F14.3°C 59.1°F15.1°C 86% 0.8 mph NNE1.3 kmh NNE 0.8 mph1.3 kmh 29.61 in1002.7 mb 0.00 in0.0 mm 0.00 in0.0 mm 0.10 in2.5 mm
02:32 PM 58.2°F14.6°C 59.1°F15.1°C 86% Calm Calm -- 29.61 in1002.7 mb 0.00 in0.0 mm 0.00 in0.0 mm 0.10 in2.5 mm
02:35 PM 57.8°F14.3°C 59.4°F15.2°C 86% 0.4 mph NNE0.6 kmh NNE 0.4 mph0.6 kmh 29.61 in1002.7 mb 0.00 in0.0 mm 0.00 in0.0 mm 0.10 in2.5 mm
02:38 PM 57.8°F14.3°C 59.4°F15.2°C 86% 0.4 mph NNE0.6 kmh NNE 0.4 mph0.6 kmh 29.60 in1002.4 mb 0.00 in0.0 mm 0.00 in0.0 mm 0.10 in2.5 mm
02:41 PM 57.9°F14.4°C 59.1°F15.1°C 86% Calm Calm -- 29.60 in1002.4 mb 0.00 in0.0 mm 0.00 in0.0 mm 0.10 in2.5 mm
02:44 PM 58.0°F14.4°C 59.3°F15.2°C 85% Calm Calm -- 29.60 in1002.4 mb 0.00 in0.0 mm 0.00 in0.0 mm 0.10 in2.5 mm
02:47 PM 58.0°F14.4°C 59.4°F15.2°C 86% Calm Calm -- 29.60 in1002.4 mb 0.00 in0.0 mm 0.00 in0.0 mm 0.10 in2.5 mm
02:50 PM 58.1°F14.5°C 59.3°F15.2°C 86% 1.2 mph NE1.9 kmh NE 1.2 mph1.9 kmh 29.60 in1002.4 mb 0.00 in0.0 mm 0.00 in0.0 mm 0.10 in2.5 mm
02:53 PM 58.6°F14.8°C 59.6°F15.3°C 87% Calm Calm -- 29.60 in1002.4 mb 0.00 in0.0 mm 0.00 in0.0 mm 0.10 in2.5 mm
02:56 PM 58.8°F14.9°C 59.8°F15.4°C 87% Calm Calm -- 29.60 in1002.4 mb 0.00 in0.0 mm 0.00 in0.0 mm 0.10 in2.5 mm
02:59 PM 59.3°F15.2°C 59.9°F15.5°C 87% Calm Calm -- 29.59 in1002.0 mb 0.00 in0.0 mm 0.00 in0.0 mm 0.10 in2.5 mm
03:02 PM 59.5°F15.3°C 60.0°F15.6°C 87% Calm Calm -- 29.59 in1002.0 mb 0.00 in0.0 mm 0.00 in0.0 mm 0.10 in2.5 mm
03:05 PM 59.1°F15.1°C 59.9°F15.5°C 86% Calm Calm -- 29.59 in1002.0 mb 0.00 in0.0 mm 0.00 in0.0 mm 0.10 in2.5 mm
03:08 PM 59.0°F15.0°C 60.2°F15.7°C 87% Calm Calm -- 29.59 in1002.0 mb 0.00 in0.0 mm 0.00 in0.0 mm 0.10 in2.5 mm
03:11 PM 59.0°F15.0°C 60.1°F15.6°C 87% Calm Calm -- 29.59 in1002.0 mb 0.00 in0.0 mm 0.00 in0.0 mm 0.10 in2.5 mm
03:14 PM 59.0°F15.0°C 60.1°F15.6°C 87% Calm Calm -- 29.59 in1002.0 mb 0.00 in0.0 mm 0.00 in0.0 mm 0.10 in2.5 mm
03:17 PM 59.0°F15.0°C 60.1°F15.6°C 87% Calm Calm -- 29.60 in1002.4 mb 0.00 in0.0 mm 0.00 in0.0 mm 0.10 in2.5 mm
03:20 PM 58.8°F14.9°C 60.2°F15.7°C 87% Calm Calm -- 29.59 in1002.0 mb 0.00 in0.0 mm 0.00 in0.0 mm 0.10 in2.5 mm
03:23 PM 58.8°F14.9°C 60.4°F15.8°C 87% Calm Calm -- 29.59 in1002.0 mb 0.00 in0.0 mm 0.00 in0.0 mm 0.10 in2.5 mm
03:26 PM 58.7°F14.8°C 60.3°F15.7°C 87% Calm Calm -- 29.59 in1002.0 mb 0.00 in0.0 mm 0.00 in0.0 mm 0.10 in2.5 mm
03:29 PM 58.7°F14.8°C 60.1°F15.6°C 86% 3.6 mph WSW5.8 kmh WSW 3.6 mph5.8 kmh 29.59 in1002.0 mb 0.00 in0.0 mm 0.00 in0.0 mm 0.10 in2.5 mm
03:32 PM 59.1°F15.1°C 60.5°F15.8°C 87% 1.6 mph WSW2.6 kmh WSW 1.6 mph2.6 kmh 29.59 in1002.0 mb 0.00 in0.0 mm 0.00 in0.0 mm 0.10 in2.5 mm
03:35 PM 59.2°F15.1°C 60.7°F15.9°C 87% 7.2 mph WSW11.6 kmh WSW 7.2 mph11.6 kmh 29.59 in1002.0 mb 0.00 in0.0 mm 0.00 in0.0 mm 0.10 in2.5 mm
03:38 PM 59.3°F15.2°C 60.6°F15.9°C 88% 2.0 mph WNW3.2 kmh WNW 2.0 mph3.2 kmh 29.59 in1002.0 mb 0.00 in0.0 mm 0.00 in0.0 mm 0.10 in2.5 mm
03:44 PM 59.5°F15.3°C 60.9°F16.1°C 88% 6.0 mph W9.7 kmh W 6.0 mph9.7 kmh 29.59 in1002.0 mb 0.00 in0.0 mm 0.00 in0.0 mm 0.10 in2.5 mm
03:47 PM 59.3°F15.2°C 60.6°F15.9°C 87% 9.5 mph W15.3 kmh W 9.5 mph15.3 kmh 29.59 in1002.0 mb 0.00 in0.0 mm 0.00 in0.0 mm 0.10 in2.5 mm
03:50 PM 59.5°F15.3°C 60.7°F15.9°C 87% 6.5 mph W10.5 kmh W 6.5 mph10.5 kmh 29.59 in1002.0 mb 0.00 in0.0 mm 0.00 in0.0 mm 0.10 in2.5 mm
03:53 PM 59.5°F15.3°C 60.9°F16.1°C 87% 1.6 mph NNW2.6 kmh NNW 1.6 mph2.6 kmh 29.60 in1002.4 mb 0.00 in0.0 mm 0.00 in0.0 mm 0.10 in2.5 mm
03:56 PM 59.6°F15.3°C 60.6°F15.9°C 87% 2.7 mph W4.3 kmh W 2.7 mph4.3 kmh 29.60 in1002.4 mb 0.00 in0.0 mm 0.00 in0.0 mm 0.10 in2.5 mm
03:59 PM 59.8°F15.4°C 60.7°F15.9°C 87% 4.9 mph WSW7.9 kmh WSW 4.9 mph7.9 kmh 29.59 in1002.0 mb 0.00 in0.0 mm 0.00 in0.0 mm 0.10 in2.5 mm
04:02 PM 59.7°F15.4°C 61.0°F16.1°C 87% 4.8 mph W7.7 kmh W 4.9 mph7.9 kmh 29.60 in1002.4 mb 0.00 in0.0 mm 0.00 in0.0 mm 0.10 in2.5 mm
04:05 PM 59.6°F15.3°C 61.0°F16.1°C 87% 4.9 mph W7.9 kmh W 4.9 mph7.9 kmh 29.59 in1002.0 mb 0.00 in0.0 mm 0.00 in0.0 mm 0.10 in2.5 mm
04:08 PM 59.6°F15.3°C 61.0°F16.1°C 87% 6.9 mph WSW11.1 kmh WSW 6.9 mph11.1 kmh 29.60 in1002.4 mb 0.00 in0.0 mm 0.00 in0.0 mm 0.10 in2.5 mm
04:11 PM 59.6°F15.3°C 60.9°F16.1°C 86% 7.3 mph W11.7 kmh W 7.4 mph11.9 kmh 29.59 in1002.0 mb 0.00 in0.0 mm 0.00 in0.0 mm 0.10 in2.5 mm
04:14 PM 59.7°F15.4°C 60.8°F16.0°C 86% 6.5 mph W10.5 kmh W 6.5 mph10.5 kmh 29.59 in1002.0 mb 0.00 in0.0 mm 0.00 in0.0 mm 0.10 in2.5 mm
04:17 PM 59.6°F15.3°C 61.0°F16.1°C 86% 2.3 mph NW3.7 kmh NW 2.3 mph3.7 kmh 29.59 in1002.0 mb 0.00 in0.0 mm 0.00 in0.0 mm 0.10 in2.5 mm
04:20 PM 59.6°F15.3°C 60.9°F16.1°C 86% 6.4 mph WSW10.3 kmh WSW 6.4 mph10.3 kmh 29.59 in1002.0 mb 0.00 in0.0 mm 0.00 in0.0 mm 0.10 in2.5 mm
04:23 PM 59.7°F15.4°C 61.0°F16.1°C 86% 2.4 mph NNW3.9 kmh NNW 2.4 mph3.9 kmh 29.59 in1002.0 mb 0.00 in0.0 mm 0.00 in0.0 mm 0.10 in2.5 mm
04:26 PM 59.7°F15.4°C 61.0°F16.1°C 86% 1.9 mph NNW3.1 kmh NNW 2.0 mph3.2 kmh 29.59 in1002.0 mb 0.00 in0.0 mm 0.00 in0.0 mm 0.10 in2.5 mm
04:29 PM 59.7°F15.4°C 61.1°F16.2°C 87% 4.8 mph NNW7.7 kmh NNW 4.9 mph7.9 kmh 29.59 in1002.0 mb 0.00 in0.0 mm 0.00 in0.0 mm 0.10 in2.5 mm
04:32 PM 59.7°F15.4°C 61.1°F16.2°C 86% 2.0 mph WNW3.2 kmh WNW 2.0 mph3.2 kmh 29.59 in1002.0 mb 0.00 in0.0 mm 0.00 in0.0 mm 0.10 in2.5 mm
04:35 PM 59.7°F15.4°C 61.0°F16.1°C 86% 2.4 mph W3.9 kmh W 2.4 mph3.9 kmh 29.59 in1002.0 mb 0.00 in0.0 mm 0.00 in0.0 mm 0.10 in2.5 mm
04:38 PM 59.8°F15.4°C 60.6°F15.9°C 85% 2.0 mph WSW3.2 kmh WSW 2.0 mph3.2 kmh 29.59 in1002.0 mb 0.00 in0.0 mm 0.00 in0.0 mm 0.10 in2.5 mm
04:41 PM 59.9°F15.5°C 60.7°F15.9°C 86% 4.0 mph WSW6.4 kmh WSW 4.0 mph6.4 kmh 29.59 in1002.0 mb 0.00 in0.0 mm 0.00 in0.0 mm 0.10 in2.5 mm
04:44 PM 59.9°F15.5°C 61.0°F16.1°C 86% 1.2 mph NNW1.9 kmh NNW 1.2 mph1.9 kmh 29.59 in1002.0 mb 0.00 in0.0 mm 0.00 in0.0 mm 0.10 in2.5 mm
04:47 PM 59.9°F15.5°C 61.0°F16.1°C 86% 7.8 mph NNW12.6 kmh NNW 7.9 mph12.7 kmh 29.59 in1002.0 mb 0.00 in0.0 mm 0.00 in0.0 mm 0.10 in2.5 mm
04:50 PM 59.9°F15.5°C 60.8°F16.0°C 85% 6.4 mph NNW10.3 kmh NNW 6.4 mph10.3 kmh 29.59 in1002.0 mb 0.00 in0.0 mm 0.00 in0.0 mm 0.10 in2.5 mm
04:53 PM 60.0°F15.6°C 60.9°F16.1°C 85% 5.6 mph WSW9.0 kmh WSW 5.6 mph9.0 kmh 29.59 in1002.0 mb 0.00 in0.0 mm 0.00 in0.0 mm 0.10 in2.5 mm
04:56 PM 60.0°F15.6°C 60.8°F16.0°C 85% 2.3 mph W3.7 kmh W 2.3 mph3.7 kmh 29.59 in1002.0 mb 0.00 in0.0 mm 0.00 in0.0 mm 0.10 in2.5 mm
04:59 PM 60.0°F15.6°C 60.6°F15.9°C 84% 0.8 mph WSW1.3 kmh WSW 0.8 mph1.3 kmh 29.58 in1001.7 mb 0.00 in0.0 mm 0.00 in0.0 mm 0.10 in2.5 mm
05:02 PM 60.0°F15.6°C 60.6°F15.9°C 84% 0.8 mph SW1.3 kmh SW 0.8 mph1.3 kmh 29.58 in1001.7 mb 0.00 in0.0 mm 0.00 in0.0 mm 0.10 in2.5 mm
05:05 PM 59.8°F15.4°C 60.9°F16.1°C 85% 4.0 mph SW6.4 kmh SW 4.1 mph6.6 kmh 29.58 in1001.7 mb 0.00 in0.0 mm 0.00 in0.0 mm 0.10 in2.5 mm
05:08 PM 59.8°F15.4°C 60.7°F15.9°C 85% 2.8 mph SW4.5 kmh SW 2.9 mph4.7 kmh 29.58 in1001.7 mb 0.00 in0.0 mm 0.00 in0.0 mm 0.10 in2.5 mm
05:11 PM 59.8°F15.4°C 60.5°F15.8°C 84% 1.2 mph SW1.9 kmh SW 1.2 mph1.9 kmh 29.58 in1001.7 mb 0.00 in0.0 mm 0.00 in0.0 mm 0.10 in2.5 mm
05:14 PM 59.7°F15.4°C 60.9°F16.1°C 85% 2.0 mph WSW3.2 kmh WSW 2.0 mph3.2 kmh 29.58 in1001.7 mb 0.00 in0.0 mm 0.00 in0.0 mm 0.10 in2.5 mm
05:17 PM 59.8°F15.4°C 60.7°F15.9°C 85% 7.7 mph WSW12.4 kmh WSW 7.7 mph12.4 kmh 29.58 in1001.7 mb 0.00 in0.0 mm 0.00 in0.0 mm 0.10 in2.5 mm
05:20 PM 59.9°F15.5°C 60.4°F15.8°C 85% 7.7 mph WSW12.4 kmh WSW 7.7 mph12.4 kmh 29.58 in1001.7 mb 0.00 in0.0 mm 0.00 in0.0 mm 0.10 in2.5 mm
05:23 PM 59.8°F15.4°C 60.7°F15.9°C 85% 1.6 mph SW2.6 kmh SW 1.6 mph2.6 kmh 29.58 in1001.7 mb 0.00 in0.0 mm 0.00 in0.0 mm 0.10 in2.5 mm
05:26 PM 59.8°F15.4°C 60.7°F15.9°C 85% 3.2 mph W5.1 kmh W 3.2 mph5.1 kmh 29.58 in1001.7 mb 0.00 in0.0 mm 0.00 in0.0 mm 0.10 in2.5 mm
05:29 PM 59.7°F15.4°C 60.9°F16.1°C 85% 1.6 mph SSW2.6 kmh SSW 1.6 mph2.6 kmh 29.58 in1001.7 mb 0.00 in0.0 mm 0.00 in0.0 mm 0.10 in2.5 mm
05:32 PM 59.7°F15.4°C 60.7°F15.9°C 84% 5.7 mph WSW9.2 kmh WSW 5.7 mph9.2 kmh 29.58 in1001.7 mb 0.00 in0.0 mm 0.00 in0.0 mm 0.10 in2.5 mm
05:35 PM 59.7°F15.4°C 60.5°F15.8°C 84% 0.8 mph NW1.3 kmh NW 0.8 mph1.3 kmh 29.58 in1001.7 mb 0.00 in0.0 mm 0.00 in0.0 mm 0.10 in2.5 mm
05:38 PM 59.7°F15.4°C 60.9°F16.1°C 85% 1.2 mph WSW1.9 kmh WSW 1.2 mph1.9 kmh 29.58 in1001.7 mb 0.00 in0.0 mm 0.00 in0.0 mm 0.10 in2.5 mm
05:41 PM 59.6°F15.3°C 60.6°F15.9°C 84% 0.8 mph WSW1.3 kmh WSW 0.8 mph1.3 kmh 29.58 in1001.7 mb 0.00 in0.0 mm 0.00 in0.0 mm 0.10 in2.5 mm
05:44 PM 59.6°F15.3°C 60.7°F15.9°C 84% 1.6 mph W2.6 kmh W 1.6 mph2.6 kmh 29.58 in1001.7 mb 0.00 in0.0 mm 0.00 in0.0 mm 0.10 in2.5 mm
05:47 PM 59.5°F15.3°C 60.2°F15.7°C 83% Calm Calm -- 29.58 in1001.7 mb 0.00 in0.0 mm 0.00 in0.0 mm 0.10 in2.5 mm
05:50 PM 59.5°F15.3°C 60.7°F15.9°C 84% 1.2 mph W1.9 kmh W 1.2 mph1.9 kmh 29.59 in1002.0 mb 0.00 in0.0 mm 0.00 in0.0 mm 0.10 in2.5 mm
05:53 PM 59.5°F15.3°C 60.6°F15.9°C 84% 1.6 mph SW2.6 kmh SW 1.6 mph2.6 kmh 29.58 in1001.7 mb 0.00 in0.0 mm 0.00 in0.0 mm 0.10 in2.5 mm
05:56 PM 59.5°F15.3°C 60.7°F15.9°C 84% 1.5 mph NNW2.4 kmh NNW 1.6 mph2.6 kmh 29.58 in1001.7 mb 0.00 in0.0 mm 0.00 in0.0 mm 0.10 in2.5 mm
05:59 PM 59.5°F15.3°C 60.6°F15.9°C 84% 0.4 mph S0.6 kmh S 0.4 mph0.6 kmh 29.58 in1001.7 mb 0.00 in0.0 mm 0.00 in0.0 mm 0.10 in2.5 mm
06:02 PM 59.3°F15.2°C 60.5°F15.8°C 84% 0.4 mph NNW0.6 kmh NNW 0.4 mph0.6 kmh 29.58 in1001.7 mb 0.00 in0.0 mm 0.00 in0.0 mm 0.10 in2.5 mm
06:05 PM 59.3°F15.2°C 60.6°F15.9°C 84% 1.2 mph SW1.9 kmh SW 1.2 mph1.9 kmh 29.58 in1001.7 mb 0.00 in0.0 mm 0.00 in0.0 mm 0.10 in2.5 mm
06:08 PM 59.3°F15.2°C 60.7°F15.9°C 84% 0.4 mph SW0.6 kmh SW 0.4 mph0.6 kmh 29.57 in1001.4 mb 0.00 in0.0 mm 0.00 in0.0 mm 0.10 in2.5 mm
06:11 PM 59.1°F15.1°C 60.4°F15.8°C 84% Calm Calm -- 29.57 in1001.4 mb 0.00 in0.0 mm 0.00 in0.0 mm 0.10 in2.5 mm
06:14 PM 59.0°F15.0°C 60.7°F15.9°C 84% Calm Calm -- 29.57 in1001.4 mb 0.00 in0.0 mm 0.00 in0.0 mm 0.10 in2.5 mm
06:17 PM 58.9°F14.9°C 60.4°F15.8°C 84% Calm Calm -- 29.57 in1001.4 mb 0.00 in0.0 mm 0.00 in0.0 mm 0.10 in2.5 mm
06:20 PM 58.9°F14.9°C 60.6°F15.9°C 84% Calm Calm -- 29.58 in1001.7 mb 0.00 in0.0 mm 0.00 in0.0 mm 0.10 in2.5 mm
06:23 PM 58.8°F14.9°C 60.2°F15.7°C 83% Calm Calm -- 29.58 in1001.7 mb 0.00 in0.0 mm 0.00 in0.0 mm 0.10 in2.5 mm
06:26 PM 58.8°F14.9°C 60.3°F15.7°C 84% Calm Calm -- 29.57 in1001.4 mb 0.00 in0.0 mm 0.00 in0.0 mm 0.10 in2.5 mm
06:29 PM 58.9°F14.9°C 60.3°F15.7°C 84% Calm Calm -- 29.57 in1001.4 mb 0.00 in0.0 mm 0.00 in0.0 mm 0.10 in2.5 mm
06:32 PM 58.9°F14.9°C 60.3°F15.7°C 84% Calm Calm -- 29.57 in1001.4 mb 0.00 in0.0 mm 0.00 in0.0 mm 0.10 in2.5 mm
06:35 PM 58.9°F14.9°C 60.5°F15.8°C 84% Calm Calm -- 29.57 in1001.4 mb 0.00 in0.0 mm 0.00 in0.0 mm 0.10 in2.5 mm
06:38 PM 58.7°F14.8°C 60.5°F15.8°C 84% Calm Calm -- 29.57 in1001.4 mb 0.00 in0.0 mm 0.00 in0.0 mm 0.10 in2.5 mm
06:41 PM 58.9°F14.9°C 60.5°F15.8°C 84% Calm Calm -- 29.57 in1001.4 mb 0.00 in0.0 mm 0.00 in0.0 mm 0.10 in2.5 mm
06:44 PM 58.8°F14.9°C 60.5°F15.8°C 84% 0.8 mph SW1.3 kmh SW 0.8 mph1.3 kmh 29.57 in1001.4 mb 0.00 in0.0 mm 0.00 in0.0 mm 0.10 in2.5 mm
06:47 PM 58.6°F14.8°C 60.3°F15.7°C 84% 0.4 mph SW0.6 kmh SW 0.4 mph0.6 kmh 29.57 in1001.4 mb 0.00 in0.0 mm 0.00 in0.0 mm 0.10 in2.5 mm
06:50 PM 58.7°F14.8°C 60.3°F15.7°C 84% 4.8 mph WNW7.7 kmh WNW 4.8 mph7.7 kmh 29.57 in1001.4 mb 0.00 in0.0 mm 0.00 in0.0 mm 0.10 in2.5 mm
06:53 PM 58.9°F14.9°C 60.4°F15.8°C 84% 0.4 mph W0.6 kmh W 0.4 mph0.6 kmh 29.57 in1001.4 mb 0.00 in0.0 mm 0.00 in0.0 mm 0.10 in2.5 mm
06:56 PM 59.0°F15.0°C 60.4°F15.8°C 84% 0.8 mph SW1.3 kmh SW 0.8 mph1.3 kmh 29.57 in1001.4 mb 0.00 in0.0 mm 0.00 in0.0 mm 0.10 in2.5 mm
06:59 PM 58.8°F14.9°C 60.5°F15.8°C 85% 0.4 mph WSW0.6 kmh WSW 0.4 mph0.6 kmh 29.57 in1001.4 mb 0.00 in0.0 mm 0.00 in0.0 mm 0.10 in2.5 mm
07:02 PM 58.9°F14.9°C 60.4°F15.8°C 84% 0.8 mph WSW1.3 kmh WSW 0.8 mph1.3 kmh 29.57 in1001.4 mb 0.00 in0.0 mm 0.00 in0.0 mm 0.10 in2.5 mm
07:05 PM 58.8°F14.9°C 60.1°F15.6°C 83% 0.4 mph W0.6 kmh W 0.4 mph0.6 kmh 29.57 in1001.4 mb 0.00 in0.0 mm 0.00 in0.0 mm 0.10 in2.5 mm
07:08 PM 58.9°F14.9°C 60.3°F15.7°C 83% 2.7 mph W4.3 kmh W 2.7 mph4.3 kmh 29.57 in1001.4 mb 0.00 in0.0 mm 0.00 in0.0 mm 0.10 in2.5 mm
07:11 PM 58.8°F14.9°C 60.5°F15.8°C 84% 0.8 mph SW1.3 kmh SW 0.8 mph1.3 kmh 29.57 in1001.4 mb 0.00 in0.0 mm 0.00 in0.0 mm 0.10 in2.5 mm
07:14 PM 58.7°F14.8°C 60.3°F15.7°C 84% 4.8 mph W7.7 kmh W 4.8 mph7.7 kmh 29.57 in1001.4 mb 0.00 in0.0 mm 0.00 in0.0 mm 0.10 in2.5 mm
07:17 PM 58.7°F14.8°C 60.5°F15.8°C 85% 0.8 mph NNW1.3 kmh NNW 0.8 mph1.3 kmh 29.57 in1001.4 mb 0.00 in0.0 mm 0.00 in0.0 mm 0.12 in3.0 mm
07:20 PM 58.6°F14.8°C 60.4°F15.8°C 84% 1.6 mph SW2.6 kmh SW 1.6 mph2.6 kmh 29.57 in1001.4 mb 0.00 in0.0 mm 0.00 in0.0 mm 0.12 in3.0 mm
07:23 PM 58.3°F14.6°C 60.8°F16.0°C 85% 1.5 mph NNW2.4 kmh NNW 1.6 mph2.6 kmh 29.57 in1001.4 mb 0.00 in0.0 mm 0.00 in0.0 mm 0.16 in4.1 mm
07:26 PM 58.2°F14.6°C 60.6°F15.9°C 85% 1.6 mph NNW2.6 kmh NNW 1.6 mph2.6 kmh 29.57 in1001.4 mb 0.00 in0.0 mm 0.00 in0.0 mm 0.16 in4.1 mm
07:29 PM 58.1°F14.5°C 60.7°F15.9°C 85% 0.8 mph WNW1.3 kmh WNW 0.8 mph1.3 kmh 29.57 in1001.4 mb 0.00 in0.0 mm 0.00 in0.0 mm 0.16 in4.1 mm
07:32 PM 58.2°F14.6°C 60.8°F16.0°C 86% 0.8 mph SW1.3 kmh SW 0.8 mph1.3 kmh 29.57 in1001.4 mb 0.00 in0.0 mm 0.00 in0.0 mm 0.18 in4.6 mm
07:35 PM 58.1°F14.5°C 60.7°F15.9°C 86% 2.4 mph W3.9 kmh W 2.4 mph3.9 kmh 29.57 in1001.4 mb 0.00 in0.0 mm 0.00 in0.0 mm 0.18 in4.6 mm
07:38 PM 58.1°F14.5°C 60.9°F16.1°C 86% 7.3 mph W11.7 kmh W 7.3 mph11.7 kmh 29.57 in1001.4 mb 0.00 in0.0 mm 0.00 in0.0 mm 0.18 in4.6 mm
07:41 PM 58.1°F14.5°C 60.9°F16.1°C 86% 2.4 mph S3.9 kmh S 2.4 mph3.9 kmh 29.57 in1001.4 mb 0.00 in0.0 mm 0.00 in0.0 mm 0.20 in5.1 mm
07:44 PM 58.1°F14.5°C 61.0°F16.1°C 87% 5.4 mph WSW8.7 kmh WSW 5.4 mph8.7 kmh 29.57 in1001.4 mb 0.00 in0.0 mm 0.00 in0.0 mm 0.22 in5.6 mm
07:47 PM 58.2°F14.6°C 60.9°F16.1°C 87% 6.1 mph WSW9.8 kmh WSW 6.1 mph9.8 kmh 29.58 in1001.7 mb 0.00 in0.0 mm 0.00 in0.0 mm 0.22 in5.6 mm
07:50 PM 58.1°F14.5°C 60.8°F16.0°C 87% 8.9 mph W14.3 kmh W 9.0 mph14.5 kmh 29.58 in1001.7 mb 0.00 in0.0 mm 0.00 in0.0 mm 0.24 in6.1 mm
07:53 PM 58.0°F14.4°C 61.0°F16.1°C 87% 4.4 mph NNW7.1 kmh NNW 4.5 mph7.2 kmh 29.58 in1001.7 mb 0.00 in0.0 mm 0.00 in0.0 mm 0.24 in6.1 mm
07:56 PM 58.0°F14.4°C 60.9°F16.1°C 87% 6.0 mph NNW9.7 kmh NNW 6.0 mph9.7 kmh 29.58 in1001.7 mb 0.00 in0.0 mm 0.00 in0.0 mm 0.24 in6.1 mm
07:59 PM 57.9°F14.4°C 60.9°F16.1°C 87% 6.9 mph W11.1 kmh W 6.9 mph11.1 kmh 29.58 in1001.7 mb 0.00 in0.0 mm 0.00 in0.0 mm 0.26 in6.6 mm
08:02 PM 57.7°F14.3°C 60.8°F16.0°C 88% 8.9 mph W14.3 kmh W 8.9 mph14.3 kmh 29.58 in1001.7 mb 0.00 in0.0 mm 0.00 in0.0 mm 0.26 in6.6 mm
08:05 PM 57.7°F14.3°C 60.7°F15.9°C 87% 8.3 mph NW13.4 kmh NW 8.4 mph13.5 kmh 29.59 in1002.0 mb 0.00 in0.0 mm 0.00 in0.0 mm 0.28 in7.1 mm
08:11 PM 57.4°F14.1°C 60.7°F15.9°C 87% 3.1 mph SSW5.0 kmh SSW 3.1 mph5.0 kmh 29.59 in1002.0 mb 0.00 in0.0 mm 0.00 in0.0 mm 0.30 in7.6 mm
08:14 PM 57.4°F14.1°C 60.6°F15.9°C 87% 3.1 mph NNW5.0 kmh NNW 3.1 mph5.0 kmh 29.59 in1002.0 mb 0.00 in0.0 mm 0.00 in0.0 mm 0.30 in7.6 mm
08:17 PM 57.3°F14.1°C 60.4°F15.8°C 87% 2.8 mph WSW4.5 kmh WSW 2.9 mph4.7 kmh 29.58 in1001.7 mb 0.00 in0.0 mm 0.00 in0.0 mm 0.32 in8.1 mm
08:20 PM 57.2°F14.0°C 60.3°F15.7°C 87% 2.8 mph W4.5 kmh W 2.9 mph4.7 kmh 29.59 in1002.0 mb 0.00 in0.0 mm 0.00 in0.0 mm 0.34 in8.6 mm
08:23 PM 57.1°F13.9°C 60.3°F15.7°C 87% 0.8 mph SW1.3 kmh SW 0.8 mph1.3 kmh 29.57 in1001.4 mb 0.00 in0.0 mm 0.00 in0.0 mm 0.34 in8.6 mm
08:26 PM 57.0°F13.9°C 60.3°F15.7°C 87% 2.0 mph SSW3.2 kmh SSW 2.0 mph3.2 kmh 29.58 in1001.7 mb 0.00 in0.0 mm 0.00 in0.0 mm 0.34 in8.6 mm
08:29 PM 56.9°F13.8°C 60.3°F15.7°C 87% Calm Calm -- 29.57 in1001.4 mb 0.00 in0.0 mm 0.00 in0.0 mm 0.34 in8.6 mm
08:32 PM 56.9°F13.8°C 60.1°F15.6°C 87% 1.2 mph WSW1.9 kmh WSW 1.2 mph1.9 kmh 29.57 in1001.4 mb 0.00 in0.0 mm 0.00 in0.0 mm 0.34 in8.6 mm
08:35 PM 56.8°F13.8°C 60.1°F15.6°C 87% Calm Calm -- 29.57 in1001.4 mb 0.00 in0.0 mm 0.00 in0.0 mm 0.34 in8.6 mm
08:38 PM 56.6°F13.7°C 60.0°F15.6°C 87% Calm Calm -- 29.57 in1001.4 mb 0.00 in0.0 mm 0.00 in0.0 mm 0.34 in8.6 mm
08:41 PM 56.5°F13.6°C 60.2°F15.7°C 87% Calm Calm -- 29.57 in1001.4 mb 0.00 in0.0 mm 0.00 in0.0 mm 0.34 in8.6 mm
08:44 PM 56.4°F13.6°C 60.0°F15.6°C 87% Calm Calm -- 29.57 in1001.4 mb 0.00 in0.0 mm 0.00 in0.0 mm 0.34 in8.6 mm
08:47 PM 56.3°F13.5°C 60.0°F15.6°C 87% 1.6 mph ESE2.6 kmh ESE 1.6 mph2.6 kmh 29.56 in1001.0 mb 0.00 in0.0 mm 0.00 in0.0 mm 0.34 in8.6 mm
08:50 PM 56.4°F13.6°C 59.7°F15.4°C 86% Calm Calm -- 29.57 in1001.4 mb 0.00 in0.0 mm 0.00 in0.0 mm 0.34 in8.6 mm
08:53 PM 56.4°F13.6°C 60.0°F15.6°C 87% 0.4 mph SW0.6 kmh SW 0.4 mph0.6 kmh 29.57 in1001.4 mb 0.00 in0.0 mm 0.00 in0.0 mm 0.34 in8.6 mm
08:56 PM 56.3°F13.5°C 59.6°F15.3°C 86% Calm Calm -- 29.57 in1001.4 mb 0.00 in0.0 mm 0.00 in0.0 mm 0.34 in8.6 mm
08:59 PM 56.1°F13.4°C 59.9°F15.5°C 87% 0.4 mph SSW0.6 kmh SSW 0.4 mph0.6 kmh 29.57 in1001.4 mb 0.00 in0.0 mm 0.00 in0.0 mm 0.34 in8.6 mm
09:02 PM 56.0°F13.3°C 59.6°F15.3°C 86% 0.4 mph NNW0.6 kmh NNW 0.4 mph0.6 kmh 29.57 in1001.4 mb 0.00 in0.0 mm 0.00 in0.0 mm 0.34 in8.6 mm
09:05 PM 55.7°F13.2°C 59.4°F15.2°C 87% 2.8 mph WSW4.5 kmh WSW 2.9 mph4.7 kmh 29.57 in1001.4 mb 0.00 in0.0 mm 0.00 in0.0 mm 0.34 in8.6 mm
09:08 PM 55.5°F13.1°C 59.2°F15.1°C 86% 1.6 mph SW2.6 kmh SW 1.6 mph2.6 kmh 29.57 in1001.4 mb 0.00 in0.0 mm 0.00 in0.0 mm 0.34 in8.6 mm
09:11 PM 55.4°F13.0°C 59.3°F15.2°C 86% 2.7 mph NNW4.3 kmh NNW 2.7 mph4.3 kmh 29.57 in1001.4 mb 0.00 in0.0 mm 0.00 in0.0 mm 0.34 in8.6 mm
09:14 PM 55.4°F13.0°C 59.3°F15.2°C 87% 3.2 mph WSW5.1 kmh WSW 3.3 mph5.3 kmh 29.57 in1001.4 mb 0.00 in0.0 mm 0.00 in0.0 mm 0.34 in8.6 mm
09:17 PM 55.4°F13.0°C 59.2°F15.1°C 86% 2.0 mph W3.2 kmh W 2.0 mph3.2 kmh 29.57 in1001.4 mb 0.00 in0.0 mm 0.00 in0.0 mm 0.34 in8.6 mm
09:20 PM 55.4°F13.0°C 59.0°F15.0°C 87% 1.6 mph WNW2.6 kmh WNW 1.6 mph2.6 kmh 29.57 in1001.4 mb 0.00 in0.0 mm 0.00 in0.0 mm 0.34 in8.6 mm
09:23 PM 55.4°F13.0°C 59.0°F15.0°C 86% 3.2 mph WSW5.1 kmh WSW 3.3 mph5.3 kmh 29.57 in1001.4 mb 0.00 in0.0 mm 0.00 in0.0 mm 0.34 in8.6 mm
09:26 PM 55.4°F13.0°C 58.7°F14.8°C 86% 3.2 mph WSW5.1 kmh WSW 3.2 mph5.1 kmh 29.57 in1001.4 mb 0.00 in0.0 mm 0.00 in0.0 mm 0.34 in8.6 mm
09:29 PM 55.3°F12.9°C 58.9°F14.9°C 87% 2.4 mph NNW3.9 kmh NNW 2.5 mph4.0 kmh 29.57 in1001.4 mb 0.00 in0.0 mm 0.00 in0.0 mm 0.34 in8.6 mm
09:32 PM 55.3°F12.9°C 58.9°F14.9°C 86% 3.5 mph NNW5.6 kmh NNW 3.5 mph5.6 kmh 29.57 in1001.4 mb 0.00 in0.0 mm 0.00 in0.0 mm 0.34 in8.6 mm
09:35 PM 55.3°F12.9°C 58.8°F14.9°C 86% Calm Calm -- 29.57 in1001.4 mb 0.00 in0.0 mm 0.00 in0.0 mm 0.34 in8.6 mm
09:38 PM 55.3°F12.9°C 58.8°F14.9°C 87% Calm Calm -- 29.57 in1001.4 mb 0.00 in0.0 mm 0.00 in0.0 mm 0.34 in8.6 mm
09:41 PM 55.3°F12.9°C 58.4°F14.7°C 85% 1.5 mph W2.4 kmh W 1.6 mph2.6 kmh 29.57 in1001.4 mb 0.00 in0.0 mm 0.00 in0.0 mm 0.34 in8.6 mm
09:44 PM 55.3°F12.9°C 58.9°F14.9°C 86% Calm Calm -- 29.57 in1001.4 mb 0.00 in0.0 mm 0.00 in0.0 mm 0.34 in8.6 mm
09:47 PM 55.3°F12.9°C 58.9°F14.9°C 86% Calm Calm -- 29.57 in1001.4 mb 0.00 in0.0 mm 0.00 in0.0 mm 0.34 in8.6 mm
09:50 PM 55.2°F12.9°C 58.9°F14.9°C 86% 0.8 mph W1.3 kmh W 0.8 mph1.3 kmh 29.57 in1001.4 mb 0.00 in0.0 mm 0.00 in0.0 mm 0.34 in8.6 mm
09:53 PM 55.2°F12.9°C 58.5°F14.7°C 86% 1.6 mph WNW2.6 kmh WNW 1.6 mph2.6 kmh 29.57 in1001.4 mb 0.00 in0.0 mm 0.00 in0.0 mm 0.34 in8.6 mm
09:56 PM 55.2°F12.9°C 58.7°F14.8°C 86% 0.8 mph NNW1.3 kmh NNW 0.8 mph1.3 kmh 29.57 in1001.4 mb 0.00 in0.0 mm 0.00 in0.0 mm 0.34 in8.6 mm
09:59 PM 55.2°F12.9°C 58.7°F14.8°C 86% 2.8 mph WNW4.5 kmh WNW 2.8 mph4.5 kmh 29.57 in1001.4 mb 0.00 in0.0 mm 0.00 in0.0 mm 0.34 in8.6 mm
10:02 PM 55.1°F12.8°C 58.3°F14.6°C 86% Calm Calm -- 29.57 in1001.4 mb 0.00 in0.0 mm 0.00 in0.0 mm 0.34 in8.6 mm
10:05 PM 55.2°F12.9°C 58.5°F14.7°C 86% 1.2 mph NW1.9 kmh NW 1.2 mph1.9 kmh 29.57 in1001.4 mb 0.00 in0.0 mm 0.00 in0.0 mm 0.34 in8.6 mm
10:08 PM 55.2°F12.9°C 58.6°F14.8°C 87% Calm Calm -- 29.57 in1001.4 mb 0.00 in0.0 mm 0.00 in0.0 mm 0.34 in8.6 mm
10:11 PM 55.1°F12.8°C 58.5°F14.7°C 86% Calm Calm -- 29.57 in1001.4 mb 0.00 in0.0 mm 0.00 in0.0 mm 0.34 in8.6 mm
10:14 PM 55.0°F12.8°C 58.1°F14.5°C 85% Calm Calm -- 29.57 in1001.4 mb 0.00 in0.0 mm 0.00 in0.0 mm 0.34 in8.6 mm
10:17 PM 55.0°F12.8°C 58.4°F14.7°C 86% Calm Calm -- 29.57 in1001.4 mb 0.00 in0.0 mm 0.00 in0.0 mm 0.34 in8.6 mm
10:20 PM 55.0°F12.8°C 58.5°F14.7°C 86% Calm Calm -- 29.57 in1001.4 mb 0.00 in0.0 mm 0.00 in0.0 mm 0.34 in8.6 mm
10:23 PM 54.8°F12.7°C 58.4°F14.7°C 86% Calm Calm -- 29.57 in1001.4 mb 0.00 in0.0 mm 0.00 in0.0 mm 0.34 in8.6 mm
10:26 PM 55.0°F12.8°C 58.4°F14.7°C 86% Calm Calm -- 29.57 in1001.4 mb 0.00 in0.0 mm 0.00 in0.0 mm 0.34 in8.6 mm
10:29 PM 54.8°F12.7°C 58.2°F14.6°C 86% Calm Calm -- 29.57 in1001.4 mb 0.00 in0.0 mm 0.00 in0.0 mm 0.34 in8.6 mm
10:32 PM 55.0°F12.8°C 58.6°F14.8°C 86% Calm Calm -- 29.57 in1001.4 mb 0.00 in0.0 mm 0.00 in0.0 mm 0.34 in8.6 mm
10:35 PM 54.8°F12.7°C 58.6°F14.8°C 87% Calm Calm -- 29.57 in1001.4 mb 0.00 in0.0 mm 0.00 in0.0 mm 0.34 in8.6 mm
10:38 PM 54.7°F12.6°C 58.2°F14.6°C 86% Calm Calm -- 29.56 in1001.0 mb 0.00 in0.0 mm 0.00 in0.0 mm 0.34 in8.6 mm
10:41 PM 54.8°F12.7°C 58.5°F14.7°C 87% Calm Calm -- 29.57 in1001.4 mb 0.00 in0.0 mm 0.00 in0.0 mm 0.34 in8.6 mm
10:44 PM 54.8°F12.7°C 58.1°F14.5°C 86% 1.6 mph 2.6 kmh 1.6 mph2.6 kmh 29.57 in1001.4 mb 0.00 in0.0 mm 0.00 in0.0 mm 0.34 in8.6 mm
10:47 PM 54.7°F12.6°C 58.2°F14.6°C 86% 0.8 mph NNE1.3 kmh NNE 0.8 mph1.3 kmh 29.57 in1001.4 mb 0.00 in0.0 mm 0.00 in0.0 mm 0.34 in8.6 mm
10:50 PM 54.7°F12.6°C 58.2°F14.6°C 87% 1.2 mph 1.9 kmh 1.2 mph1.9 kmh 29.56 in1001.0 mb 0.00 in0.0 mm 0.00 in0.0 mm 0.34 in8.6 mm
10:53 PM 54.8°F12.7°C 58.4°F14.7°C 87% Calm Calm -- 29.56 in1001.0 mb 0.00 in0.0 mm 0.00 in0.0 mm 0.34 in8.6 mm
10:56 PM 54.7°F12.6°C 58.0°F14.4°C 86% Calm Calm -- 29.57 in1001.4 mb 0.00 in0.0 mm 0.00 in0.0 mm 0.34 in8.6 mm
10:59 PM 54.7°F12.6°C 58.2°F14.6°C 86% Calm Calm -- 29.56 in1001.0 mb 0.00 in0.0 mm 0.00 in0.0 mm 0.34 in8.6 mm
11:02 PM 54.6°F12.6°C 58.0°F14.4°C 86% Calm Calm -- 29.56 in1001.0 mb 0.00 in0.0 mm 0.00 in0.0 mm 0.00 in0.0 mm
11:05 PM 54.7°F12.6°C 58.0°F14.4°C 86% Calm Calm -- 29.56 in1001.0 mb 0.00 in0.0 mm 0.00 in0.0 mm 0.02 in0.5 mm
11:08 PM 54.7°F12.6°C 57.9°F14.4°C 86% Calm Calm -- 29.56 in1001.0 mb 0.00 in0.0 mm 0.00 in0.0 mm 0.02 in0.5 mm
11:11 PM 54.6°F12.6°C 58.2°F14.6°C 87% Calm Calm -- 29.56 in1001.0 mb 0.00 in0.0 mm 0.00 in0.0 mm 0.02 in0.5 mm
11:14 PM 54.6°F12.6°C 58.0°F14.4°C 87% Calm Calm -- 29.56 in1001.0 mb 0.00 in0.0 mm 0.00 in0.0 mm 0.02 in0.5 mm
11:17 PM 54.6°F12.6°C 58.2°F14.6°C 87% Calm Calm -- 29.56 in1001.0 mb 0.00 in0.0 mm 0.00 in0.0 mm 0.02 in0.5 mm
11:20 PM 54.5°F12.5°C 58.1°F14.5°C 86% Calm Calm -- 29.56 in1001.0 mb 0.00 in0.0 mm 0.00 in0.0 mm 0.02 in0.5 mm
11:23 PM 54.5°F12.5°C 58.1°F14.5°C 87% Calm Calm -- 29.56 in1001.0 mb 0.00 in0.0 mm 0.00 in0.0 mm 0.02 in0.5 mm
11:26 PM 54.5°F12.5°C 58.1°F14.5°C 86% Calm Calm -- 29.56 in1001.0 mb 0.00 in0.0 mm 0.00 in0.0 mm 0.02 in0.5 mm
11:29 PM 54.5°F12.5°C 58.1°F14.5°C 87% Calm Calm -- 29.55 in1000.7 mb 0.00 in0.0 mm 0.00 in0.0 mm 0.02 in0.5 mm
11:32 PM 54.6°F12.6°C 58.0°F14.4°C 87% Calm Calm -- 29.55 in1000.7 mb 0.00 in0.0 mm 0.00 in0.0 mm 0.02 in0.5 mm
11:35 PM 54.5°F12.5°C 58.1°F14.5°C 87% Calm Calm -- 29.55 in1000.7 mb 0.00 in0.0 mm 0.00 in0.0 mm 0.02 in0.5 mm
11:38 PM 54.5°F12.5°C 57.8°F14.3°C 86% Calm Calm -- 29.55 in1000.7 mb 0.00 in0.0 mm 0.00 in0.0 mm 0.02 in0.5 mm
11:41 PM 54.5°F12.5°C 57.8°F14.3°C 86% 1.2 mph WSW1.9 kmh WSW 1.2 mph1.9 kmh 29.55 in1000.7 mb 0.00 in0.0 mm 0.00 in0.0 mm 0.02 in0.5 mm
11:44 PM 54.5°F12.5°C 58.1°F14.5°C 87% Calm Calm -- 29.55 in1000.7 mb 0.00 in0.0 mm 0.00 in0.0 mm 0.02 in0.5 mm
11:47 PM 54.5°F12.5°C 58.1°F14.5°C 87% Calm Calm -- 29.55 in1000.7 mb 0.00 in0.0 mm 0.00 in0.0 mm 0.02 in0.5 mm
11:50 PM 54.5°F12.5°C 58.1°F14.5°C 87% Calm Calm -- 29.55 in1000.7 mb 0.00 in0.0 mm 0.00 in0.0 mm 0.02 in0.5 mm
11:53 PM 54.5°F12.5°C 58.1°F14.5°C 87% Calm Calm -- 29.55 in1000.7 mb 0.00 in0.0 mm 0.00 in0.0 mm 0.02 in0.5 mm
11:56 PM 54.6°F12.6°C 57.7°F14.3°C 87% Calm Calm -- 29.55 in1000.7 mb 0.00 in0.0 mm 0.00 in0.0 mm 0.02 in0.5 mm
11:59 PM 54.5°F12.5°C 58.0°F14.4°C 87% Calm Calm -- 29.55 in1000.7 mb 0.00 in0.0 mm 0.00 in0.0 mm 0.02 in0.5 mm